Observation data for Amarillo 9 North Northeast on 01/19/2019      Previous  Date  Next       Current Mesonet Observations  Soil Data  Daily Summary Page  Observations in Plain Language
KAM2 190600Z 35022G30KT M00/M03 A3008 RMK A01 T10031033  RH  081%=      5-min Rain = 0
KAM2 190601Z 36025G30KT M00/M03 A3008 RMK A01 T10041033  RH  081%=      5-min Rain = 0
KAM2 190602Z 35026G32KT M00/M03 A3008 RMK A01 T10041033  RH  081%=      5-min Rain = 0
KAM2 190603Z 36024G29KT M00/M03 A3008 RMK A01 T10041034  RH  080%=      5-min Rain = 0
KAM2 190604Z 36024G32KT M00/M03 A3008 RMK A01 T10041033  RH  081%=      5-min Rain = 0
KAM2 190605Z 36025KT M00/M03 A3008 RMK A01 T10041033  RH  081%=      5-min Rain = 0
KAM2 190606Z 36023G29KT M00/M03 A3008 RMK A01 T10041033  RH  081%=      5-min Rain = 0
KAM2 190607Z 36023G29KT M00/M03 A3008 RMK A01 T10041032  RH  081%=      5-min Rain = 0
KAM2 190608Z 36022G28KT M00/M03 A3008 RMK A01 T10041032  RH  081%=      5-min Rain = 0
KAM2 190609Z 00022G28KT M00/M03 A3008 RMK A01 T10041031  RH  082%=      5-min Rain = 0
KAM2 190610Z 36021KT M00/M03 A3009 RMK A01 T10031031  RH  082%=      5-min Rain = 0
KAM2 190611Z 35015G21KT M00/M03 A3009 RMK A01 T10031030  RH  082%=      5-min Rain = 0
KAM2 190612Z 35018KT M00/M03 A3009 RMK A01 T10041030  RH  083%=      5-min Rain = 0
KAM2 190613Z 35016KT M00/M03 A3009 RMK A01 T10041029  RH  083%=      5-min Rain = 0
KAM2 190614Z 35019KT M00/M03 A3009 RMK A01 T10041029  RH  083%=      5-min Rain = 0
KAM2 190615Z 35019KT M00/M03 A3009 RMK A01 T10041030  RH  083%=      5-min Rain = 0
KAM2 190616Z 34021G26KT M00/M03 A3009 RMK A01 T10041030  RH  083%=      5-min Rain = 0
KAM2 190617Z 35019G24KT M00/M03 A3009 RMK A01 T10041031  RH  082%=      5-min Rain = 0
KAM2 190618Z 35016G23KT M00/M03 A3009 RMK A01 T10041031  RH  082%=      5-min Rain = 0
KAM2 190619Z 34018G25KT M01/M03 A3009 RMK A01 T10051031  RH  083%=      5-min Rain = 0
KAM2 190620Z 35020G25KT M01/M03 A3009 RMK A01 T10051031  RH  083%=      5-min Rain = 0
KAM2 190621Z 35022G27KT M01/M03 A3009 RMK A01 T10061032  RH  082%=      5-min Rain = 0
KAM2 190622Z 35020G28KT M01/M03 A301 RMK A01 T10061033  RH  082%=      5-min Rain = 0
KAM2 190623Z 35020KT M01/M04 A3009 RMK A01 T10071035  RH  081%=      5-min Rain = 0
KAM2 190624Z 35023G29KT M01/M04 A301 RMK A01 T10071036  RH  081%=      5-min Rain = 0
KAM2 190625Z 36025G32KT M01/M04 A301 RMK A01 T10071037  RH  081%=      5-min Rain = 0
KAM2 190626Z 35027G32KT M01/M04 A301 RMK A01 T10081038  RH  080%=      5-min Rain = 0
KAM2 190627Z 00027G32KT M01/M04 A301 RMK A01 T10081039  RH  079%=      5-min Rain = 0
KAM2 190628Z 36024KT M01/M04 A301 RMK A01 T10081040  RH  079%=      5-min Rain = 0
KAM2 190629Z 35022G29KT M01/M04 A301 RMK A01 T10081039  RH  079%=      5-min Rain = 0
KAM2 190630Z 35024KT M01/M04 A301 RMK A01 T10081039  RH  080%=      5-min Rain = 0
KAM2 190631Z 35022KT M01/M04 A301 RMK A01 T10091039  RH  080%=      5-min Rain = 0
KAM2 190632Z 35018G23KT M01/M04 A3011 RMK A01 T10091038  RH  080%=      5-min Rain = 0
KAM2 190633Z 35019KT M01/M04 A3011 RMK A01 T10091038  RH  081%=      5-min Rain = 0
KAM2 190634Z 35017G23KT M01/M04 A301 RMK A01 T10101038  RH  081%=      5-min Rain = 0
KAM2 190635Z 34015KT M01/M04 A3011 RMK A01 T10101037  RH  082%=      5-min Rain = 0
KAM2 190636Z 35018KT M01/M04 A3011 RMK A01 T10101037  RH  082%=      5-min Rain = 0
KAM2 190637Z 35019KT M01/M04 A3011 RMK A01 T10101037  RH  082%=      5-min Rain = 0
KAM2 190638Z 35021G27KT M01/M04 A3011 RMK A01 T10111038  RH  082%=      5-min Rain = 0
KAM2 190639Z 34018G23KT M01/M04 A301 RMK A01 T10111039  RH  081%=      5-min Rain = 0
KAM2 190640Z 35021G26KT M01/M04 A3011 RMK A01 T10111039  RH  081%=      5-min Rain = 0
KAM2 190641Z 35015KT M01/M04 A3011 RMK A01 T10111040  RH  081%=      5-min Rain = 0
KAM2 190642Z 35020G25KT M01/M04 A3011 RMK A01 T10121040  RH  081%=      5-min Rain = 0
KAM2 190643Z 35020KT M01/M04 A3011 RMK A01 T10121041  RH  081%=      5-min Rain = 0
KAM2 190644Z 35016G21KT M01/M04 A3011 RMK A01 T10121041  RH  081%=      5-min Rain = 0
KAM2 190645Z 35018G23KT M01/M04 A3011 RMK A01 T10121041  RH  081%=      5-min Rain = 0
KAM2 190646Z 35018G24KT M01/M04 A3011 RMK A01 T10131042  RH  081%=      5-min Rain = 0
KAM2 190647Z 35016G21KT M01/M04 A3011 RMK A01 T10131042  RH  081%=      5-min Rain = 0
KAM2 190648Z 35018G23KT M01/M04 A3011 RMK A01 T10131042  RH  081%=      5-min Rain = 0
KAM2 190649Z 35019KT M01/M04 A3011 RMK A01 T10131042  RH  081%=      5-min Rain = 0
KAM2 190650Z 36017KT M01/M04 A3011 RMK A01 T10131042  RH  080%=      5-min Rain = 0
KAM2 190651Z 35016KT M01/M04 A3011 RMK A01 T10141043  RH  081%=      5-min Rain = 0
KAM2 190652Z 35021G26KT M01/M04 A3011 RMK A01 T10141043  RH  081%=      5-min Rain = 0
KAM2 190653Z 35018KT M01/M04 A3011 RMK A01 T10141044  RH  080%=      5-min Rain = 0
KAM2 190654Z 35018KT M01/M04 A3011 RMK A01 T10141044  RH  080%=      5-min Rain = 0
KAM2 190655Z 34017KT M01/M04 A3011 RMK A01 T10141044  RH  080%=      5-min Rain = 0
KAM2 190656Z 35017G23KT M01/M04 A3011 RMK A01 T10141044  RH  080%=      5-min Rain = 0
KAM2 190657Z 35021KT M01/M04 A3011 RMK A01 T10141044  RH  080%=      5-min Rain = 0
KAM2 190658Z 35018KT M01/M05 A3012 RMK A01 T10141045  RH  080%=      5-min Rain = 0
KAM2 190659Z 34016KT M01/M05 A3012 RMK A01 T10141045  RH  080%=      5-min Rain = 0
KAM2 190700Z 35018KT M02/M05 A3012 RMK A01 T10151045  RH  080%=      5-min Rain = 0
KAM2 190701Z 35017G23KT M02/M05 A3012 RMK A01 T10151045  RH  080%=      5-min Rain = 0
KAM2 190702Z 35017G24KT M02/M04 A3012 RMK A01 T10151044  RH  080%=      5-min Rain = 0
KAM2 190703Z 34018KT M02/M04 A3012 RMK A01 T10151044  RH  080%=      5-min Rain = 0
KAM2 190704Z 35015G20KT M02/M04 A3012 RMK A01 T10151044  RH  080%=      5-min Rain = 0
KAM2 190705Z 34015KT M02/M04 A3012 RMK A01 T10151044  RH  080%=      5-min Rain = 0
KAM2 190706Z 34015KT M02/M04 A3012 RMK A01 T10151044  RH  081%=      5-min Rain = 0
KAM2 190707Z 34015G20KT M02/M04 A3012 RMK A01 T10161044  RH  081%=      5-min Rain = 0
KAM2 190708Z 34015KT M02/M04 A3012 RMK A01 T10161044  RH  081%=      5-min Rain = 0
KAM2 190709Z 34014KT M02/M04 A3012 RMK A01 T10161043  RH  082%=      5-min Rain = 0
KAM2 190710Z 35015KT M02/M04 A3012 RMK A01 T10161044  RH  082%=      5-min Rain = 0
KAM2 190711Z 35016KT M02/M04 A3012 RMK A01 T10161044  RH  082%=      5-min Rain = 0
KAM2 190712Z 34015KT M02/M04 A3012 RMK A01 T10161044  RH  082%=      5-min Rain = 0
KAM2 190713Z 35014G19KT M02/M04 A3012 RMK A01 T10161043  RH  082%=      5-min Rain = 0
KAM2 190714Z 34015G20KT M02/M04 A3012 RMK A01 T10161043  RH  082%=      5-min Rain = 0
KAM2 190715Z 35016G22KT M02/M04 A3012 RMK A01 T10161043  RH  082%=      5-min Rain = 0
KAM2 190716Z 34018G27KT M02/M04 A3012 RMK A01 T10161043  RH  082%=      5-min Rain = 0
KAM2 190717Z 34016KT M02/M04 A3012 RMK A01 T10161044  RH  082%=      5-min Rain = 0
KAM2 190718Z 34015KT M02/M04 A3012 RMK A01 T10171044  RH  081%=      5-min Rain = 0
KAM2 190719Z 34017KT M02/M04 A3012 RMK A01 T10161044  RH  081%=      5-min Rain = 0
KAM2 190720Z 35017KT M02/M04 A3012 RMK A01 T10161044  RH  082%=      5-min Rain = 0
KAM2 190721Z 35016G21KT M02/M04 A3012 RMK A01 T10161044  RH  081%=      5-min Rain = 0
KAM2 190722Z 35014G19KT M02/M04 A3013 RMK A01 T10161044  RH  081%=      5-min Rain = 0
KAM2 190723Z 35014KT M02/M04 A3013 RMK A01 T10161044  RH  081%=      5-min Rain = 0
KAM2 190724Z 35016G21KT M02/M04 A3012 RMK A01 T10161043  RH  082%=      5-min Rain = 0
KAM2 190725Z 35016KT M02/M04 A3013 RMK A01 T10161043  RH  082%=      5-min Rain = 0
KAM2 190726Z 35013KT M02/M04 A3012 RMK A01 T10161043  RH  082%=      5-min Rain = 0
KAM2 190727Z 34015G21KT M02/M04 A3012 RMK A01 T10171043  RH  082%=      5-min Rain = 0
KAM2 190728Z 35015KT M02/M04 A3012 RMK A01 T10171043  RH  082%=      5-min Rain = 0
KAM2 190729Z 35016KT M02/M04 A3013 RMK A01 T10171043  RH  082%=      5-min Rain = 0
KAM2 190730Z 35016KT M02/M04 A3013 RMK A01 T10171043  RH  082%=      5-min Rain = 0
KAM2 190731Z 35016G21KT M02/M04 A3013 RMK A01 T10171043  RH  082%=      5-min Rain = 0
KAM2 190732Z 34015KT M02/M04 A3013 RMK A01 T10171044  RH  082%=      5-min Rain = 0
KAM2 190733Z 35015G20KT M02/M04 A3013 RMK A01 T10171044  RH  082%=      5-min Rain = 0
KAM2 190734Z 35014KT M02/M04 A3013 RMK A01 T10171044  RH  082%=      5-min Rain = 0
KAM2 190735Z 34012KT M02/M04 A3013 RMK A01 T10171043  RH  082%=      5-min Rain = 0
KAM2 190736Z 34013KT M02/M04 A3013 RMK A01 T10171043  RH  083%=      5-min Rain = 0
KAM2 190737Z 34013KT M02/M04 A3013 RMK A01 T10171043  RH  083%=      5-min Rain = 0
KAM2 190738Z 34013KT M02/M04 A3013 RMK A01 T10171043  RH  083%=      5-min Rain = 0
KAM2 190739Z 35014KT M02/M04 A3013 RMK A01 T10171042  RH  083%=      5-min Rain = 0
KAM2 190740Z 35014G19KT M02/M04 A3013 RMK A01 T10171042  RH  083%=      5-min Rain = 0
KAM2 190741Z 34015G20KT M02/M04 A3013 RMK A01 T10171042  RH  083%=      5-min Rain = 0
KAM2 190742Z 34014KT M02/M04 A3013 RMK A01 T10171042  RH  083%=      5-min Rain = 0
KAM2 190743Z 34012KT M02/M04 A3013 RMK A01 T10171042  RH  083%=      5-min Rain = 0
KAM2 190744Z 34012KT M02/M04 A3013 RMK A01 T10171042  RH  083%=      5-min Rain = 0
KAM2 190745Z 34013KT M02/M04 A3013 RMK A01 T10171042  RH  083%=      5-min Rain = 0
KAM2 190746Z 34013KT M02/M04 A3013 RMK A01 T10171041  RH  084%=      5-min Rain = 0
KAM2 190747Z 34013KT M02/M04 A3013 RMK A01 T10171041  RH  084%=      5-min Rain = 0
KAM2 190748Z 34012KT M02/M04 A3013 RMK A01 T10171040  RH  084%=      5-min Rain = 0
KAM2 190749Z 34013KT M02/M04 A3013 RMK A01 T10171041  RH  084%=      5-min Rain = 0
KAM2 190750Z 34012KT M02/M04 A3013 RMK A01 T10171040  RH  084%=      5-min Rain = 0
KAM2 190751Z 34011KT M02/M04 A3013 RMK A01 T10171040  RH  084%=      5-min Rain = 0
KAM2 190752Z 33014G19KT M02/M04 A3013 RMK A01 T10171041  RH  084%=      5-min Rain = 0
KAM2 190753Z 34016G21KT M02/M04 A3013 RMK A01 T10171041  RH  084%=      5-min Rain = 0
KAM2 190754Z 34014KT M02/M04 A3014 RMK A01 T10171042  RH  083%=      5-min Rain = 0
KAM2 190755Z 34012G17KT M02/M04 A3014 RMK A01 T10171042  RH  083%=      5-min Rain = 0
KAM2 190756Z 34017KT M02/M04 A3013 RMK A01 T10181042  RH  083%=      5-min Rain = 0
KAM2 190757Z 34015KT M02/M04 A3014 RMK A01 T10181043  RH  083%=      5-min Rain = 0
KAM2 190758Z 34017G22KT M02/M04 A3013 RMK A01 T10181043  RH  083%=      5-min Rain = 0
KAM2 190759Z 34019G24KT M02/M04 A3013 RMK A01 T10181044  RH  082%=      5-min Rain = 0
KAM2 190800Z 34019G24KT M02/M05 A3013 RMK A01 T10181045  RH  082%=      5-min Rain = 0
KAM2 190801Z 34018KT M02/M05 A3014 RMK A01 T10181045  RH  082%=      5-min Rain = 0
KAM2 190802Z 34015KT M02/M05 A3014 RMK A01 T10191046  RH  082%=      5-min Rain = 0
KAM2 190803Z 34018G24KT M02/M05 A3014 RMK A01 T10201046  RH  082%=      5-min Rain = 0
KAM2 190804Z 34019KT M02/M05 A3014 RMK A01 T10201046  RH  082%=      5-min Rain = 0
KAM2 190805Z 34020KT M02/M05 A3014 RMK A01 T10201047  RH  082%=      5-min Rain = 0
KAM2 190806Z 34020G25KT M02/M05 A3014 RMK A01 T10201047  RH  082%=      5-min Rain = 0
KAM2 190807Z 34020KT M02/M05 A3014 RMK A01 T10201047  RH  082%=      5-min Rain = 0
KAM2 190808Z 34019KT M02/M05 A3014 RMK A01 T10211048  RH  082%=      5-min Rain = 0
KAM2 190809Z 34018G23KT M02/M05 A3014 RMK A01 T10211048  RH  082%=      5-min Rain = 0
KAM2 190810Z 34016G22KT M02/M05 A3014 RMK A01 T10221048  RH  082%=      5-min Rain = 0
KAM2 190811Z 34017G23KT M02/M05 A3014 RMK A01 T10211047  RH  082%=      5-min Rain = 0
KAM2 190812Z 35019G25KT M02/M05 A3014 RMK A01 T10211048  RH  082%=      5-min Rain = 0
KAM2 190813Z 34018KT M02/M05 A3014 RMK A01 T10221048  RH  082%=      5-min Rain = 0
KAM2 190814Z 34018KT M02/M05 A3014 RMK A01 T10221048  RH  082%=      5-min Rain = 0
KAM2 190815Z 35017KT M02/M05 A3014 RMK A01 T10221048  RH  082%=      5-min Rain = 0
KAM2 190816Z 34015G20KT M02/M05 A3014 RMK A01 T10221049  RH  082%=      5-min Rain = 0
KAM2 190817Z 35017KT M02/M05 A3014 RMK A01 T10231049  RH  082%=      5-min Rain = 0
KAM2 190818Z 34018KT M02/M05 A3014 RMK A01 T10231049  RH  082%=      5-min Rain = 0
KAM2 190819Z 34018G23KT M02/M05 A3014 RMK A01 T10231049  RH  082%=      5-min Rain = 0
KAM2 190820Z 34023G30KT M02/M05 A3014 RMK A01 T10231049  RH  082%=      5-min Rain = 0
KAM2 190821Z 34020KT M02/M05 A3014 RMK A01 T10231050  RH  082%=      5-min Rain = 0
KAM2 190822Z 35022G27KT M02/M05 A3014 RMK A01 T10231050  RH  082%=      5-min Rain = 0
KAM2 190823Z 34017KT M02/M05 A3014 RMK A01 T10231050  RH  082%=      5-min Rain = 0
KAM2 190824Z 34020G25KT M02/M05 A3014 RMK A01 T10221049  RH  082%=      5-min Rain = 0
KAM2 190825Z 34019G26KT M02/M05 A3014 RMK A01 T10231050  RH  082%=      5-min Rain = 0
KAM2 190826Z 34021G26KT M02/M05 A3014 RMK A01 T10231050  RH  082%=      5-min Rain = 0
KAM2 190827Z 35022G27KT M02/M05 A3014 RMK A01 T10231050  RH  082%=      5-min Rain = 0
KAM2 190828Z 34017G22KT M02/M05 A3015 RMK A01 T10231050  RH  081%=      5-min Rain = 0
KAM2 190829Z 34019KT M02/M05 A3015 RMK A01 T10231050  RH  082%=      5-min Rain = 0
KAM2 190830Z 34019G25KT M02/M05 A3015 RMK A01 T10231050  RH  082%=      5-min Rain = 0
KAM2 190831Z 34020KT M02/M05 A3015 RMK A01 T10231050  RH  082%=      5-min Rain = 0
KAM2 190832Z 34018G23KT M02/M05 A3015 RMK A01 T10231050  RH  082%=      5-min Rain = 0
KAM2 190833Z 34020G26KT M02/M05 A3015 RMK A01 T10231050  RH  082%=      5-min Rain = 0
KAM2 190834Z 35021G27KT M02/M05 A3015 RMK A01 T10231051  RH  082%=      5-min Rain = 0
KAM2 190835Z 33022G29KT M02/M05 A3015 RMK A01 T10231051  RH  081%=      5-min Rain = 0
KAM2 190836Z 35018KT M02/M05 A3015 RMK A01 T10231051  RH  081%=      5-min Rain = 0
KAM2 190837Z 34018KT M02/M05 A3015 RMK A01 T10231050  RH  081%=      5-min Rain = 0
KAM2 190838Z 34015KT M02/M05 A3015 RMK A01 T10231050  RH  082%=      5-min Rain = 0
KAM2 190839Z 34015KT M02/M05 A3015 RMK A01 T10231050  RH  082%=      5-min Rain = 0
KAM2 190840Z 34017G23KT M02/M05 A3015 RMK A01 T10231049  RH  082%=      5-min Rain = 0
KAM2 190841Z 34017G23KT M02/M05 A3015 RMK A01 T10231049  RH  082%=      5-min Rain = 0
KAM2 190842Z 34017G24KT M02/M05 A3015 RMK A01 T10231049  RH  082%=      5-min Rain = 0
KAM2 190843Z 35021KT M02/M05 A3015 RMK A01 T10231050  RH  082%=      5-min Rain = 0
KAM2 190844Z 34018KT M02/M05 A3016 RMK A01 T10231050  RH  082%=      5-min Rain = 0
KAM2 190845Z 34018KT M02/M05 A3016 RMK A01 T10231050  RH  082%=      5-min Rain = 0
KAM2 190846Z 34019KT M02/M05 A3016 RMK A01 T10221050  RH  082%=      5-min Rain = 0
KAM2 190847Z 35017KT M02/M05 A3016 RMK A01 T10231050  RH  082%=      5-min Rain = 0
KAM2 190848Z 34014G25KT M02/M05 A3016 RMK A01 T10231050  RH  082%=      5-min Rain = 0
KAM2 190849Z 34020KT M02/M05 A3016 RMK A01 T10231049  RH  082%=      5-min Rain = 0
KAM2 190850Z 35019G24KT M02/M05 A3016 RMK A01 T10231050  RH  082%=      5-min Rain = 0
KAM2 190851Z 35017KT M02/M05 A3016 RMK A01 T10221049  RH  082%=      5-min Rain = 0
KAM2 190852Z 34018KT M02/M05 A3016 RMK A01 T10221049  RH  082%=      5-min Rain = 0
KAM2 190853Z 34016KT M02/M05 A3016 RMK A01 T10221049  RH  082%=      5-min Rain = 0
KAM2 190854Z 35017G22KT M02/M05 A3016 RMK A01 T10221049  RH  082%=      5-min Rain = 0
KAM2 190855Z 34017KT M02/M05 A3016 RMK A01 T10221049  RH  082%=      5-min Rain = 0
KAM2 190856Z 34014G19KT M02/M05 A3016 RMK A01 T10221049  RH  082%=      5-min Rain = 0
KAM2 190857Z 34015KT M02/M05 A3016 RMK A01 T10231049  RH  082%=      5-min Rain = 0
KAM2 190858Z 35014KT M02/M05 A3016 RMK A01 T10221048  RH  082%=      5-min Rain = 0
KAM2 190859Z 35014KT M02/M05 A3016 RMK A01 T10231049  RH  082%=      5-min Rain = 0
KAM2 190900Z 34017KT M02/M05 A3016 RMK A01 T10231049  RH  082%=      5-min Rain = 0
KAM2 190901Z 34015KT M02/M05 A3016 RMK A01 T10231049  RH  082%=      5-min Rain = 0
KAM2 190902Z 34017KT M02/M05 A3016 RMK A01 T10231050  RH  082%=      5-min Rain = 0
KAM2 190903Z 34013KT M02/M05 A3016 RMK A01 T10231050  RH  082%=      5-min Rain = 0
KAM2 190904Z 35012G22KT M02/M05 A3016 RMK A01 T10231050  RH  082%=      5-min Rain = 0
KAM2 190905Z 35016KT M02/M05 A3016 RMK A01 T10231050  RH  082%=      5-min Rain = 0
KAM2 190906Z 34013G18KT M02/M05 A3016 RMK A01 T10231050  RH  082%=      5-min Rain = 0
KAM2 190907Z 34014KT M02/M05 A3016 RMK A01 T10241050  RH  082%=      5-min Rain = 0
KAM2 190908Z 35015KT M02/M05 A3016 RMK A01 T10231050  RH  082%=      5-min Rain = 0
KAM2 190909Z 34013KT M02/M05 A3016 RMK A01 T10241051  RH  082%=      5-min Rain = 0
KAM2 190910Z 35016KT M02/M05 A3016 RMK A01 T10231050  RH  082%=      5-min Rain = 0
KAM2 190911Z 34017KT M02/M05 A3016 RMK A01 T10231050  RH  082%=      5-min Rain = 0
KAM2 190912Z 34015KT M02/M05 A3016 RMK A01 T10231050  RH  081%=      5-min Rain = 0
KAM2 190913Z 34014G19KT M02/M05 A3016 RMK A01 T10231050  RH  081%=      5-min Rain = 0
KAM2 190914Z 34013G18KT M02/M05 A3017 RMK A01 T10231050  RH  081%=      5-min Rain = 0
KAM2 190915Z 34013G18KT M02/M05 A3017 RMK A01 T10221049  RH  082%=      5-min Rain = 0
KAM2 190916Z 34014KT M02/M05 A3017 RMK A01 T10221050  RH  082%=      5-min Rain = 0
KAM2 190917Z 33013KT M02/M05 A3017 RMK A01 T10221049  RH  082%=      5-min Rain = 0
KAM2 190918Z 34013G19KT M02/M05 A3017 RMK A01 T10221049  RH  082%=      5-min Rain = 0
KAM2 190919Z 34014KT M02/M05 A3017 RMK A01 T10221049  RH  082%=      5-min Rain = 0
KAM2 190920Z 33015KT M02/M05 A3017 RMK A01 T10221049  RH  082%=      5-min Rain = 0
KAM2 190921Z 33016KT M02/M05 A3017 RMK A01 T10221049  RH  082%=      5-min Rain = 0
KAM2 190922Z 33014KT M02/M05 A3017 RMK A01 T10211049  RH  081%=      5-min Rain = 0
KAM2 190923Z 34015G20KT M02/M05 A3017 RMK A01 T10211049  RH  081%=      5-min Rain = 0
KAM2 190924Z 34013KT M02/M05 A3017 RMK A01 T10211049  RH  081%=      5-min Rain = 0
KAM2 190925Z 33014KT M02/M05 A3017 RMK A01 T10211049  RH  082%=      5-min Rain = 0
KAM2 190926Z 34012KT M02/M05 A3017 RMK A01 T10211049  RH  082%=      5-min Rain = 0
KAM2 190927Z 34014KT M02/M05 A3017 RMK A01 T10211048  RH  082%=      5-min Rain = 0
KAM2 190928Z 34012KT M02/M05 A3017 RMK A01 T10211048  RH  082%=      5-min Rain = 0
KAM2 190929Z 34013KT M02/M05 A3017 RMK A01 T10211047  RH  082%=      5-min Rain = 0
KAM2 190930Z 34010KT M02/M05 A3017 RMK A01 T10211047  RH  082%=      5-min Rain = 0
KAM2 190931Z 34011KT M02/M05 A3017 RMK A01 T10211047  RH  082%=      5-min Rain = 0
KAM2 190932Z 34015G21KT M02/M05 A3017 RMK A01 T10211047  RH  082%=      5-min Rain = 0
KAM2 190933Z 34021KT M02/M05 A3017 RMK A01 T10201047  RH  082%=      5-min Rain = 0
KAM2 190934Z 35019KT M02/M05 A3017 RMK A01 T10211049  RH  081%=      5-min Rain = 0
KAM2 190935Z 35019KT M02/M05 A3017 RMK A01 T10211049  RH  081%=      5-min Rain = 0
KAM2 190936Z 35016KT M02/M05 A3017 RMK A01 T10211050  RH  081%=      5-min Rain = 0
KAM2 190937Z 35017KT M02/M05 A3017 RMK A01 T10211049  RH  081%=      5-min Rain = 0
KAM2 190938Z 35016KT M02/M05 A3017 RMK A01 T10211049  RH  081%=      5-min Rain = 0
KAM2 190939Z 34017G22KT M02/M05 A3017 RMK A01 T10211049  RH  081%=      5-min Rain = 0
KAM2 190940Z 35019KT M02/M05 A3017 RMK A01 T10211049  RH  081%=      5-min Rain = 0
KAM2 190941Z 34016KT M02/M05 A3017 RMK A01 T10211050  RH  081%=      5-min Rain = 0
KAM2 190942Z 35016KT M02/M05 A3017 RMK A01 T10211050  RH  081%=      5-min Rain = 0
KAM2 190943Z 34017KT M02/M05 A3017 RMK A01 T10211049  RH  081%=      5-min Rain = 0
KAM2 190944Z 34016KT M02/M05 A3017 RMK A01 T10221050  RH  081%=      5-min Rain = 0
KAM2 190945Z 34015KT M02/M05 A3017 RMK A01 T10221050  RH  081%=      5-min Rain = 0
KAM2 190946Z 34012G17KT M02/M05 A3017 RMK A01 T10231050  RH  082%=      5-min Rain = 0
KAM2 190947Z 34014KT M02/M05 A3017 RMK A01 T10231050  RH  082%=      5-min Rain = 0
KAM2 190948Z 35011KT M02/M05 A3017 RMK A01 T10231050  RH  082%=      5-min Rain = 0
KAM2 190949Z 34012KT M02/M05 A3017 RMK A01 T10241050  RH  082%=      5-min Rain = 0
KAM2 190950Z 34012KT M02/M05 A3017 RMK A01 T10241050  RH  083%=      5-min Rain = 0
KAM2 190951Z 34011KT M02/M05 A3017 RMK A01 T10241050  RH  083%=      5-min Rain = 0
KAM2 190952Z 34012KT M03/M05 A3017 RMK A01 T10251050  RH  083%=      5-min Rain = 0
KAM2 190953Z 34012KT M02/M05 A3017 RMK A01 T10241049  RH  083%=      5-min Rain = 0
KAM2 190954Z 34011KT M03/M05 A3017 RMK A01 T10251049  RH  083%=      5-min Rain = 0
KAM2 190955Z 34009KT M03/M05 A3017 RMK A01 T10251049  RH  083%=      5-min Rain = 0
KAM2 190956Z 34012KT M03/M05 A3018 RMK A01 T10251049  RH  084%=      5-min Rain = 0
KAM2 190957Z 34012KT M03/M05 A3018 RMK A01 T10251049  RH  084%=      5-min Rain = 0
KAM2 190958Z 34009KT M03/M05 A3018 RMK A01 T10251049  RH  084%=      5-min Rain = 0
KAM2 190959Z 34009KT M03/M05 A3018 RMK A01 T10251048  RH  084%=      5-min Rain = 0
KAM2 191000Z 35010KT M03/M05 A3018 RMK A01 T10261049  RH  084%=      5-min Rain = 0
KAM2 191001Z 34009KT M03/M05 A3018 RMK A01 T10261049  RH  084%=      5-min Rain = 0
KAM2 191002Z 34009KT M03/M05 A3018 RMK A01 T10261049  RH  084%=      5-min Rain = 0
KAM2 191003Z 34011KT M03/M05 A3018 RMK A01 T10271050  RH  084%=      5-min Rain = 0
KAM2 191004Z 34008KT M03/M05 A3018 RMK A01 T10271049  RH  085%=      5-min Rain = 0
KAM2 191005Z 34011KT M03/M05 A3018 RMK A01 T10271049  RH  085%=      5-min Rain = 0
KAM2 191006Z 34012KT M03/M05 A3018 RMK A01 T10281050  RH  085%=      5-min Rain = 0
KAM2 191007Z 35011KT M03/M05 A3018 RMK A01 T10281050  RH  085%=      5-min Rain = 0
KAM2 191008Z 35011G16KT M03/M05 A3018 RMK A01 T10281050  RH  085%=      5-min Rain = 0
KAM2 191009Z 35013KT M03/M05 A3018 RMK A01 T10271050  RH  085%=      5-min Rain = 0
KAM2 191010Z 34010KT M03/M05 A3018 RMK A01 T10271050  RH  085%=      5-min Rain = 0
KAM2 191011Z 35012KT M03/M05 A3018 RMK A01 T10271050  RH  085%=      5-min Rain = 0
KAM2 191012Z 34012KT M03/M05 A3018 RMK A01 T10271050  RH  085%=      5-min Rain = 0
KAM2 191013Z 35012KT M03/M05 A3018 RMK A01 T10271050  RH  085%=      5-min Rain = 0
KAM2 191014Z 35012KT M03/M05 A3018 RMK A01 T10271050  RH  084%=      5-min Rain = 0
KAM2 191015Z 34012KT M03/M05 A3018 RMK A01 T10271050  RH  085%=      5-min Rain = 0
KAM2 191016Z 34011KT M03/M05 A3018 RMK A01 T10271050  RH  085%=      5-min Rain = 0
KAM2 191017Z 35009KT M03/M05 A3018 RMK A01 T10271049  RH  085%=      5-min Rain = 0
KAM2 191018Z 34010KT M03/M05 A3018 RMK A01 T10271048  RH  085%=      5-min Rain = 0
KAM2 191019Z 34009KT M03/M05 A3018 RMK A01 T10271048  RH  085%=      5-min Rain = 0
KAM2 191020Z 34007KT M03/M05 A3018 RMK A01 T10271048  RH  085%=      5-min Rain = 0
KAM2 191021Z 34010KT M03/M05 A3018 RMK A01 T10271048  RH  086%=      5-min Rain = 0
KAM2 191022Z 33008KT M03/M05 A3018 RMK A01 T10271048  RH  086%=      5-min Rain = 0
KAM2 191023Z 34008KT M03/M05 A3018 RMK A01 T10271048  RH  086%=      5-min Rain = 0
KAM2 191024Z 34010KT M03/M05 A3018 RMK A01 T10271047  RH  086%=      5-min Rain = 0
KAM2 191025Z 34010KT M03/M05 A3018 RMK A01 T10271047  RH  086%=      5-min Rain = 0
KAM2 191026Z 34009KT M03/M05 A3018 RMK A01 T10271047  RH  086%=      5-min Rain = 0
KAM2 191027Z 34010KT M03/M05 A3018 RMK A01 T10271047  RH  086%=      5-min Rain = 0
KAM2 191028Z 34007KT M03/M05 A3018 RMK A01 T10271047  RH  086%=      5-min Rain = 0
KAM2 191029Z 34011KT M03/M05 A3018 RMK A01 T10271047  RH  086%=      5-min Rain = 0
KAM2 191030Z 34011G16KT M03/M05 A3018 RMK A01 T10281047  RH  086%=      5-min Rain = 0
KAM2 191031Z 35009KT M03/M05 A3018 RMK A01 T10281048  RH  086%=      5-min Rain = 0
KAM2 191032Z 34011KT M03/M05 A3018 RMK A01 T10281048  RH  086%=      5-min Rain = 0
KAM2 191033Z 34011KT M03/M05 A3018 RMK A01 T10281048  RH  086%=      5-min Rain = 0
KAM2 191034Z 35010KT M03/M05 A3018 RMK A01 T10281048  RH  086%=      5-min Rain = 0
KAM2 191035Z 34009KT M03/M05 A3018 RMK A01 T10281048  RH  086%=      5-min Rain = 0
KAM2 191036Z 33009KT M03/M05 A3018 RMK A01 T10291049  RH  086%=      5-min Rain = 0
KAM2 191037Z 33009KT M03/M05 A3018 RMK A01 T10281048  RH  086%=      5-min Rain = 0
KAM2 191038Z 33010KT M03/M05 A3018 RMK A01 T10291048  RH  086%=      5-min Rain = 0
KAM2 191039Z 33011KT M03/M05 A3018 RMK A01 T10291048  RH  087%=      5-min Rain = 0
KAM2 191040Z 33010KT M03/M05 A3019 RMK A01 T10291048  RH  087%=      5-min Rain = 0
KAM2 191041Z 33010KT M03/M05 A3019 RMK A01 T10291048  RH  087%=      5-min Rain = 0
KAM2 191042Z 33008KT M03/M05 A3019 RMK A01 T10291048  RH  087%=      5-min Rain = 0
KAM2 191043Z 33009KT M03/M05 A3019 RMK A01 T10291048  RH  087%=      5-min Rain = 0
KAM2 191044Z 33010KT M03/M05 A3019 RMK A01 T10291048  RH  087%=      5-min Rain = 0
KAM2 191045Z 33011KT M03/M05 A3019 RMK A01 T10291048  RH  087%=      5-min Rain = 0
KAM2 191046Z 33013KT M03/M05 A3019 RMK A01 T10291048  RH  087%=      5-min Rain = 0
KAM2 191047Z 33011KT M03/M05 A3019 RMK A01 T10281048  RH  087%=      5-min Rain = 0
KAM2 191048Z 33011KT M03/M05 A3019 RMK A01 T10281048  RH  086%=      5-min Rain = 0
KAM2 191049Z 33012KT M03/M05 A3019 RMK A01 T10281049  RH  086%=      5-min Rain = 0
KAM2 191050Z 33014KT M03/M05 A3019 RMK A01 T10281048  RH  086%=      5-min Rain = 0
KAM2 191051Z 33013KT M03/M05 A3019 RMK A01 T10281049  RH  086%=      5-min Rain = 0
KAM2 191052Z 33011KT M03/M05 A3019 RMK A01 T10281049  RH  086%=      5-min Rain = 0
KAM2 191053Z 33011KT M03/M05 A3019 RMK A01 T10281049  RH  086%=      5-min Rain = 0
KAM2 191054Z 32009KT M03/M05 A3019 RMK A01 T10291049  RH  086%=      5-min Rain = 0
KAM2 191055Z 32009KT M03/M05 A3019 RMK A01 T10291049  RH  086%=      5-min Rain = 0
KAM2 191056Z 32010KT M03/M05 A3019 RMK A01 T10301050  RH  086%=      5-min Rain = 0
KAM2 191057Z 32009KT M03/M05 A3019 RMK A01 T10311050  RH  087%=      5-min Rain = 0
KAM2 191058Z 32010KT M03/M05 A302 RMK A01 T10311050  RH  087%=      5-min Rain = 0
KAM2 191059Z 32008KT M03/M05 A302 RMK A01 T10321050  RH  087%=      5-min Rain = 0
KAM2 191100Z 32011KT M03/M05 A302 RMK A01 T10321050  RH  087%=      5-min Rain = 0
KAM2 191101Z 32007KT M03/M05 A3019 RMK A01 T10321050  RH  087%=      5-min Rain = 0
KAM2 191102Z 32007KT M03/M05 A3019 RMK A01 T10321050  RH  088%=      5-min Rain = 0
KAM2 191103Z 32008KT M03/M05 A302 RMK A01 T10321050  RH  087%=      5-min Rain = 0
KAM2 191104Z 32011KT M03/M05 A302 RMK A01 T10321050  RH  087%=      5-min Rain = 0
KAM2 191105Z 33011KT M03/M05 A302 RMK A01 T10321050  RH  087%=      5-min Rain = 0
KAM2 191106Z 33012KT M03/M05 A302 RMK A01 T10321050  RH  087%=      5-min Rain = 0
KAM2 191107Z 33010KT M03/M05 A302 RMK A01 T10321050  RH  087%=      5-min Rain = 0
KAM2 191108Z 33009KT M03/M05 A302 RMK A01 T10321050  RH  087%=      5-min Rain = 0
KAM2 191109Z 32009KT M03/M05 A3019 RMK A01 T10321051  RH  087%=      5-min Rain = 0
KAM2 191110Z 32009KT M03/M05 A3019 RMK A01 T10331051  RH  087%=      5-min Rain = 0
KAM2 191111Z 33008KT M03/M05 A3019 RMK A01 T10331051  RH  087%=      5-min Rain = 0
KAM2 191112Z 33008KT M03/M05 A302 RMK A01 T10341052  RH  087%=      5-min Rain = 0
KAM2 191113Z 32007KT M03/M05 A3019 RMK A01 T10341051  RH  088%=      5-min Rain = 0
KAM2 191114Z 31006KT M04/M05 A3019 RMK A01 T10351052  RH  088%=      5-min Rain = 0
KAM2 191115Z 32007KT M04/M05 A3019 RMK A01 T10351053  RH  088%=      5-min Rain = 0
KAM2 191116Z 32007KT M04/M05 A3019 RMK A01 T10361052  RH  088%=      5-min Rain = 0
KAM2 191117Z 32008KT M04/M05 A3019 RMK A01 T10361053  RH  088%=      5-min Rain = 0
KAM2 191118Z 32010KT M04/M05 A3019 RMK A01 T10361053  RH  088%=      5-min Rain = 0
KAM2 191119Z 32010KT M04/M05 A3019 RMK A01 T10361053  RH  088%=      5-min Rain = 0
KAM2 191120Z 32010KT M04/M05 A3019 RMK A01 T10371053  RH  088%=      5-min Rain = 0
KAM2 191121Z 32010KT M04/M05 A3019 RMK A01 T10371054  RH  088%=      5-min Rain = 0
KAM2 191122Z 32009KT M04/M05 A3019 RMK A01 T10371054  RH  088%=      5-min Rain = 0
KAM2 191123Z 32009KT M04/M05 A3019 RMK A01 T10371054  RH  088%=      5-min Rain = 0
KAM2 191124Z 32010KT M04/M05 A3019 RMK A01 T10371054  RH  088%=      5-min Rain = 0
KAM2 191125Z 32008KT M04/M05 A3019 RMK A01 T10381054  RH  088%=      5-min Rain = 0
KAM2 191126Z 32009KT M04/M05 A3019 RMK A01 T10381054  RH  088%=      5-min Rain = 0
KAM2 191127Z 32008KT M04/M06 A3019 RMK A01 T10381055  RH  088%=      5-min Rain = 0
KAM2 191128Z 32010KT M04/M05 A3019 RMK A01 T10381054  RH  089%=      5-min Rain = 0
KAM2 191129Z 32009KT M04/M05 A3019 RMK A01 T10381054  RH  089%=      5-min Rain = 0
KAM2 191130Z 32008KT M04/M06 A3019 RMK A01 T10381055  RH  089%=      5-min Rain = 0
KAM2 191131Z 32009KT M04/M06 A302 RMK A01 T10381055  RH  089%=      5-min Rain = 0
KAM2 191132Z 32009KT M04/M05 A302 RMK A01 T10381054  RH  088%=      5-min Rain = 0
KAM2 191133Z 31009KT M04/M05 A302 RMK A01 T10381054  RH  088%=      5-min Rain = 0
KAM2 191134Z 32010KT M04/M06 A302 RMK A01 T10381055  RH  088%=      5-min Rain = 0
KAM2 191135Z 32009KT M04/M05 A302 RMK A01 T10381054  RH  089%=      5-min Rain = 0
KAM2 191136Z 32007KT M04/M05 A302 RMK A01 T10381054  RH  089%=      5-min Rain = 0
KAM2 191137Z 32008KT M04/M06 A302 RMK A01 T10381055  RH  089%=      5-min Rain = 0
KAM2 191138Z 32010KT M04/M06 A302 RMK A01 T10391055  RH  089%=      5-min Rain = 0
KAM2 191139Z 32008KT M04/M06 A302 RMK A01 T10391055  RH  089%=      5-min Rain = 0
KAM2 191140Z 32008KT M04/M06 A302 RMK A01 T10391055  RH  089%=      5-min Rain = 0
KAM2 191141Z 31009KT M04/M06 A302 RMK A01 T10391055  RH  089%=      5-min Rain = 0
KAM2 191142Z 32011KT M04/M06 A302 RMK A01 T10391055  RH  088%=      5-min Rain = 0
KAM2 191143Z 32009KT M04/M06 A302 RMK A01 T10391055  RH  089%=      5-min Rain = 0
KAM2 191144Z 32008KT M04/M06 A302 RMK A01 T10391055  RH  089%=      5-min Rain = 0
KAM2 191145Z 32007KT M04/M06 A302 RMK A01 T10391055  RH  089%=      5-min Rain = 0
KAM2 191146Z 32006KT M04/M06 A302 RMK A01 T10391056  RH  089%=      5-min Rain = 0
KAM2 191147Z 32007KT M04/M06 A302 RMK A01 T10401056  RH  089%=      5-min Rain = 0
KAM2 191148Z 32007KT M04/M06 A302 RMK A01 T10391055  RH  089%=      5-min Rain = 0
KAM2 191149Z 32007KT M04/M06 A302 RMK A01 T10401056  RH  089%=      5-min Rain = 0
KAM2 191150Z 31007KT M04/M06 A302 RMK A01 T10401056  RH  089%=      5-min Rain = 0
KAM2 191151Z 31008KT M04/M06 A302 RMK A01 T10411057  RH  089%=      5-min Rain = 0
KAM2 191152Z 32009KT M04/M06 A302 RMK A01 T10411057  RH  089%=      5-min Rain = 0
KAM2 191153Z 32011KT M04/M06 A302 RMK A01 T10411057  RH  089%=      5-min Rain = 0
KAM2 191154Z 32008KT M04/M06 A302 RMK A01 T10411056  RH  089%=      5-min Rain = 0
KAM2 191155Z 32008KT M04/M06 A302 RMK A01 T10411057  RH  089%=      5-min Rain = 0
KAM2 191156Z 32008KT M04/M06 A302 RMK A01 T10401057  RH  089%=      5-min Rain = 0
KAM2 191157Z 32008KT M04/M06 A302 RMK A01 T10411057  RH  089%=      5-min Rain = 0
KAM2 191158Z 32010KT M04/M06 A302 RMK A01 T10411057  RH  089%=      5-min Rain = 0
KAM2 191159Z 32010KT M04/M06 A302 RMK A01 T10411057  RH  089%=      5-min Rain = 0
KAM2 191200Z 32009KT M04/M06 A302 RMK A01 T10411057  RH  089%=      5-min Rain = 0
KAM2 191201Z 32008KT M04/M06 A302 RMK A01 T10421057  RH  089%=      5-min Rain = 0
KAM2 191202Z 32009KT M04/M06 A302 RMK A01 T10421058  RH  089%=      5-min Rain = 0
KAM2 191203Z 32009KT M04/M06 A302 RMK A01 T10421058  RH  089%=      5-min Rain = 0
KAM2 191204Z 32007KT M04/M06 A302 RMK A01 T10421058  RH  089%=      5-min Rain = 0
KAM2 191205Z 32008KT M04/M06 A302 RMK A01 T10421058  RH  089%=      5-min Rain = 0
KAM2 191206Z 33006KT M04/M06 A302 RMK A01 T10421058  RH  089%=      5-min Rain = 0
KAM2 191207Z 33006KT M04/M06 A302 RMK A01 T10431059  RH  089%=      5-min Rain = 0
KAM2 191208Z 33008KT M04/M06 A302 RMK A01 T10431059  RH  089%=      5-min Rain = 0
KAM2 191209Z 33007KT M04/M06 A302 RMK A01 T10431058  RH  089%=      5-min Rain = 0
KAM2 191210Z 33007KT M04/M06 A302 RMK A01 T10431059  RH  089%=      5-min Rain = 0
KAM2 191211Z 33006KT M04/M06 A3021 RMK A01 T10431058  RH  089%=      5-min Rain = 0
KAM2 191212Z 33006KT M04/M06 A3021 RMK A01 T10431059  RH  089%=      5-min Rain = 0
KAM2 191213Z 33006KT M04/M06 A3021 RMK A01 T10431059  RH  089%=      5-min Rain = 0
KAM2 191214Z 33005KT M04/M06 A3021 RMK A01 T10441060  RH  089%=      5-min Rain = 0
KAM2 191215Z 33006KT M04/M06 A3021 RMK A01 T10441060  RH  089%=      5-min Rain = 0
KAM2 191216Z 32006KT M05/M06 A3021 RMK A01 T10451060  RH  089%=      5-min Rain = 0
KAM2 191217Z 33004KT M05/M06 A3021 RMK A01 T10451061  RH  089%=      5-min Rain = 0
KAM2 191218Z 34003KT M05/M06 A3021 RMK A01 T10461061  RH  089%=      5-min Rain = 0
KAM2 191219Z 34005KT M05/M06 A3021 RMK A01 T10461061  RH  089%=      5-min Rain = 0
KAM2 191220Z 34003KT M05/M06 A3021 RMK A01 T10471061  RH  089%=      5-min Rain = 0
KAM2 191221Z 34003KT M05/M06 A3021 RMK A01 T10471061  RH  090%=      5-min Rain = 0
KAM2 191222Z 35003KT M05/M06 A3021 RMK A01 T10471062  RH  090%=      5-min Rain = 0
KAM2 191223Z 34002KT M05/M06 A3021 RMK A01 T10481062  RH  090%=      5-min Rain = 0
KAM2 191224Z 34003KT M05/M06 A3021 RMK A01 T10491063  RH  090%=      5-min Rain = 0
KAM2 191225Z 34002KT M05/M06 A3021 RMK A01 T10491063  RH  090%=      5-min Rain = 0
KAM2 191226Z 34002KT M05/M06 A3021 RMK A01 T10501063  RH  090%=      5-min Rain = 0
KAM2 191227Z 34001KT M05/M06 A3021 RMK A01 T10501064  RH  090%=      5-min Rain = 0
KAM2 191228Z 33001KT M05/M06 A3021 RMK A01 T10501063  RH  091%=      5-min Rain = 0
KAM2 191229Z 35001KT M05/M06 A3021 RMK A01 T10501063  RH  091%=      5-min Rain = 0
KAM2 191230Z 01000KT M05/M06 A3021 RMK A01 T10511063  RH  091%=      5-min Rain = 0
KAM2 191231Z 00000KT M05/M06 A3021 RMK A01 T10511064  RH  091%=      5-min Rain = 0
KAM2 191232Z 31000KT M05/M06 A3022 RMK A01 T10521064  RH  091%=      5-min Rain = 0
KAM2 191233Z 34000KT M05/M06 A3022 RMK A01 T10521064  RH  091%=      5-min Rain = 0
KAM2 191234Z 30001KT M05/M06 A3022 RMK A01 T10521064  RH  091%=      5-min Rain = 0
KAM2 191235Z 28001KT M05/M06 A3022 RMK A01 T10521064  RH  091%=      5-min Rain = 0
KAM2 191236Z 26001KT M05/M06 A3022 RMK A01 T10521063  RH  092%=      5-min Rain = 0
KAM2 191237Z 29001KT M05/M06 A3022 RMK A01 T10511062  RH  092%=      5-min Rain = 0
KAM2 191238Z 27001KT M05/M06 A3022 RMK A01 T10511062  RH  092%=      5-min Rain = 0
KAM2 191239Z 29002KT M05/M06 A3022 RMK A01 T10501061  RH  092%=      5-min Rain = 0
KAM2 191240Z 28002KT M05/M06 A3023 RMK A01 T10501062  RH  092%=      5-min Rain = 0
KAM2 191241Z 29001KT M05/M06 A3022 RMK A01 T10501063  RH  091%=      5-min Rain = 0
KAM2 191242Z 29002KT M05/M06 A3023 RMK A01 T10501063  RH  091%=      5-min Rain = 0
KAM2 191243Z 31003KT M05/M06 A3023 RMK A01 T10501063  RH  091%=      5-min Rain = 0
KAM2 191244Z 31003KT M05/M07 A3023 RMK A01 T10511065  RH  090%=      5-min Rain = 0
KAM2 191245Z 31003KT M05/M07 A3023 RMK A01 T10521066  RH  090%=      5-min Rain = 0
KAM2 191246Z 32003KT M05/M07 A3023 RMK A01 T10531068  RH  090%=      5-min Rain = 0
KAM2 191247Z 33002KT M05/M07 A3023 RMK A01 T10541069  RH  090%=      5-min Rain = 0
KAM2 191248Z 33002KT M06/M07 A3023 RMK A01 T10551069  RH  090%=      5-min Rain = 0
KAM2 191249Z 33002KT M06/M07 A3023 RMK A01 T10551068  RH  091%=      5-min Rain = 0
KAM2 191250Z 32002KT M06/M07 A3023 RMK A01 T10551067  RH  091%=      5-min Rain = 0
KAM2 191251Z 33002KT M06/M07 A3023 RMK A01 T10561068  RH  091%=      5-min Rain = 0
KAM2 191252Z 33004KT M06/M07 A3023 RMK A01 T10551067  RH  092%=      5-min Rain = 0
KAM2 191253Z 33003KT M06/M07 A3023 RMK A01 T10551066  RH  092%=      5-min Rain = 0
KAM2 191254Z 33003KT M06/M07 A3023 RMK A01 T10551066  RH  092%=      5-min Rain = 0
KAM2 191255Z 34003KT M06/M07 A3023 RMK A01 T10551067  RH  091%=      5-min Rain = 0
KAM2 191256Z 34004KT M06/M07 A3023 RMK A01 T10551067  RH  091%=      5-min Rain = 0
KAM2 191257Z 34003KT M06/M07 A3023 RMK A01 T10551066  RH  092%=      5-min Rain = 0
KAM2 191258Z 34003KT M05/M07 A3023 RMK A01 T10541066  RH  091%=      5-min Rain = 0
KAM2 191259Z 33003KT M06/M07 A3023 RMK A01 T10551066  RH  092%=      5-min Rain = 0
KAM2 191300Z 33004KT M06/M07 A3023 RMK A01 T10551066  RH  092%=      5-min Rain = 0
KAM2 191301Z 33004KT M06/M07 A3023 RMK A01 T10551066  RH  092%=      5-min Rain = 0
KAM2 191302Z 34004KT M06/M07 A3024 RMK A01 T10561068  RH  091%=      5-min Rain = 0
KAM2 191303Z 34005KT M06/M07 A3024 RMK A01 T10571069  RH  091%=      5-min Rain = 0
KAM2 191304Z 34005KT M06/M07 A3024 RMK A01 T10571069  RH  092%=      5-min Rain = 0
KAM2 191305Z 35005KT M06/M07 A3024 RMK A01 T10581069  RH  092%=      5-min Rain = 0
KAM2 191306Z 34004KT M06/M07 A3024 RMK A01 T10581069  RH  092%=      5-min Rain = 0
KAM2 191307Z 34005KT M06/M07 A3024 RMK A01 T10581069  RH  092%=      5-min Rain = 0
KAM2 191308Z 34005KT M06/M07 A3024 RMK A01 T10581069  RH  092%=      5-min Rain = 0
KAM2 191309Z 34005KT M06/M07 A3024 RMK A01 T10581069  RH  092%=      5-min Rain = 0
KAM2 191310Z 34005KT M06/M07 A3024 RMK A01 T10581068  RH  092%=      5-min Rain = 0
KAM2 191311Z 34005KT M06/M07 A3024 RMK A01 T10581068  RH  092%=      5-min Rain = 0
KAM2 191312Z 34005KT M06/M07 A3024 RMK A01 T10571068  RH  092%=      5-min Rain = 0
KAM2 191313Z 34005KT M06/M07 A3024 RMK A01 T10571067  RH  092%=      5-min Rain = 0
KAM2 191314Z 34005KT M06/M07 A3024 RMK A01 T10561067  RH  092%=      5-min Rain = 0
KAM2 191315Z 33005KT M06/M07 A3024 RMK A01 T10561067  RH  092%=      5-min Rain = 0
KAM2 191316Z 34005KT M06/M07 A3024 RMK A01 T10571068  RH  092%=      5-min Rain = 0
KAM2 191317Z 33005KT M06/M07 A3025 RMK A01 T10571068  RH  092%=      5-min Rain = 0
KAM2 191318Z 33006KT M06/M07 A3024 RMK A01 T10571068  RH  092%=      5-min Rain = 0
KAM2 191319Z 33006KT M06/M07 A3025 RMK A01 T10571068  RH  092%=      5-min Rain = 0
KAM2 191320Z 33006KT M06/M07 A3025 RMK A01 T10571068  RH  092%=      5-min Rain = 0
KAM2 191321Z 33006KT M06/M07 A3024 RMK A01 T10581069  RH  091%=      5-min Rain = 0
KAM2 191322Z 33005KT M06/M07 A3024 RMK A01 T10581070  RH  091%=      5-min Rain = 0
KAM2 191323Z 33006KT M06/M07 A3024 RMK A01 T10581069  RH  092%=      5-min Rain = 0
KAM2 191324Z 33006KT M06/M07 A3024 RMK A01 T10581069  RH  092%=      5-min Rain = 0
KAM2 191325Z 34006KT M06/M07 A3025 RMK A01 T10571068  RH  092%=      5-min Rain = 0
KAM2 191326Z 34007KT M06/M07 A3025 RMK A01 T10571068  RH  092%=      5-min Rain = 0
KAM2 191327Z 34007KT M06/M07 A3025 RMK A01 T10571068  RH  092%=      5-min Rain = 0
KAM2 191328Z 34007KT M06/M07 A3025 RMK A01 T10571068  RH  092%=      5-min Rain = 0
KAM2 191329Z 34007KT M06/M07 A3025 RMK A01 T10571069  RH  092%=      5-min Rain = 0
KAM2 191330Z 34007KT M06/M07 A3025 RMK A01 T10571069  RH  092%=      5-min Rain = 0
KAM2 191331Z 34007KT M06/M07 A3025 RMK A01 T10571068  RH  092%=      5-min Rain = 0
KAM2 191332Z 33007KT M06/M07 A3025 RMK A01 T10571068  RH  092%=      5-min Rain = 0
KAM2 191333Z 33007KT M06/M07 A3025 RMK A01 T10561067  RH  092%=      5-min Rain = 0
KAM2 191334Z 33006KT M06/M07 A3025 RMK A01 T10551066  RH  092%=      5-min Rain = 0
KAM2 191335Z 33007KT M06/M07 A3025 RMK A01 T10551066  RH  092%=      5-min Rain = 0
KAM2 191336Z 33007KT M06/M07 A3025 RMK A01 T10551066  RH  092%=      5-min Rain = 0
KAM2 191337Z 33007KT M05/M07 A3025 RMK A01 T10541066  RH  092%=      5-min Rain = 0
KAM2 191338Z 33006KT M05/M07 A3025 RMK A01 T10541066  RH  091%=      5-min Rain = 0
KAM2 191339Z 33006KT M05/M07 A3025 RMK A01 T10541066  RH  091%=      5-min Rain = 0
KAM2 191340Z 33007KT M05/M07 A3025 RMK A01 T10541066  RH  091%=      5-min Rain = 0
KAM2 191341Z 33006KT M05/M07 A3025 RMK A01 T10541067  RH  091%=      5-min Rain = 0
KAM2 191342Z 33006KT M05/M07 A3025 RMK A01 T10541067  RH  091%=      5-min Rain = 0
KAM2 191343Z 33006KT M06/M07 A3025 RMK A01 T10551067  RH  091%=      5-min Rain = 0
KAM2 191344Z 33006KT M06/M07 A3025 RMK A01 T10551067  RH  091%=      5-min Rain = 0
KAM2 191345Z 33006KT M06/M07 A3025 RMK A01 T10551068  RH  091%=      5-min Rain = 0
KAM2 191346Z 33006KT M06/M07 A3026 RMK A01 T10551068  RH  091%=      5-min Rain = 0
KAM2 191347Z 33006KT M06/M07 A3026 RMK A01 T10561069  RH  091%=      5-min Rain = 0
KAM2 191348Z 33006KT M06/M07 A3026 RMK A01 T10561069  RH  091%=      5-min Rain = 0
KAM2 191349Z 33006KT M06/M07 A3026 RMK A01 T10561069  RH  091%=      5-min Rain = 0
KAM2 191350Z 33006KT M06/M07 A3026 RMK A01 T10571069  RH  091%=      5-min Rain = 0
KAM2 191351Z 33006KT M06/M07 A3026 RMK A01 T10571069  RH  091%=      5-min Rain = 0
KAM2 191352Z 34006KT M06/M07 A3026 RMK A01 T10571069  RH  091%=      5-min Rain = 0
KAM2 191353Z 34007KT M06/M07 A3026 RMK A01 T10581070  RH  091%=      5-min Rain = 0
KAM2 191354Z 34006KT M06/M07 A3026 RMK A01 T10591071  RH  091%=      5-min Rain = 0
KAM2 191355Z 34006KT M06/M07 A3026 RMK A01 T10591071  RH  091%=      5-min Rain = 0
KAM2 191356Z 34006KT M06/M07 A3026 RMK A01 T10591071  RH  091%=      5-min Rain = 0
KAM2 191357Z 34006KT M06/M07 A3026 RMK A01 T10601072  RH  091%=      5-min Rain = 0
KAM2 191358Z 34006KT M06/M07 A3026 RMK A01 T10601072  RH  091%=      5-min Rain = 0
KAM2 191359Z 34006KT M06/M07 A3026 RMK A01 T10601071  RH  092%=      5-min Rain = 0
KAM2 191400Z 34006KT M06/M07 A3026 RMK A01 T10601071  RH  092%=      5-min Rain = 0
KAM2 191401Z 34006KT M06/M07 A3026 RMK A01 T10601071  RH  092%=      5-min Rain = 0
KAM2 191402Z 34006KT M06/M07 A3026 RMK A01 T10591070  RH  092%=      5-min Rain = 0
KAM2 191403Z 34006KT M06/M07 A3027 RMK A01 T10601071  RH  092%=      5-min Rain = 0
KAM2 191404Z 34006KT M06/M07 A3027 RMK A01 T10601071  RH  092%=      5-min Rain = 0
KAM2 191405Z 33006KT M06/M07 A3027 RMK A01 T10601071  RH  092%=      5-min Rain = 0
KAM2 191406Z 34006KT M06/M07 A3027 RMK A01 T10591070  RH  092%=      5-min Rain = 0
KAM2 191407Z 34006KT M06/M07 A3027 RMK A01 T10591070  RH  092%=      5-min Rain = 0
KAM2 191408Z 34006KT M06/M07 A3027 RMK A01 T10581069  RH  092%=      5-min Rain = 0
KAM2 191409Z 34006KT M06/M07 A3027 RMK A01 T10581069  RH  092%=      5-min Rain = 0
KAM2 191410Z 35006KT M06/M07 A3027 RMK A01 T10581070  RH  091%=      5-min Rain = 0
KAM2 191411Z 34006KT M06/M07 A3027 RMK A01 T10581070  RH  091%=      5-min Rain = 0
KAM2 191412Z 34006KT M06/M07 A3027 RMK A01 T10581070  RH  091%=      5-min Rain = 0
KAM2 191413Z 34006KT M06/M07 A3027 RMK A01 T10571069  RH  091%=      5-min Rain = 0
KAM2 191414Z 34006KT M06/M07 A3028 RMK A01 T10571068  RH  091%=      5-min Rain = 0
KAM2 191415Z 34006KT M06/M07 A3028 RMK A01 T10561068  RH  091%=      5-min Rain = 0
KAM2 191416Z 33006KT M05/M07 A3028 RMK A01 T10541066  RH  091%=      5-min Rain = 0
KAM2 191417Z 33006KT M05/M07 A3028 RMK A01 T10531065  RH  091%=      5-min Rain = 0
KAM2 191418Z 33006KT M05/M07 A3028 RMK A01 T10521065  RH  091%=      5-min Rain = 0
KAM2 191419Z 34006KT M05/M07 A3028 RMK A01 T10521065  RH  091%=      5-min Rain = 0
KAM2 191420Z 34007KT M05/M06 A3028 RMK A01 T10511064  RH  090%=      5-min Rain = 0
KAM2 191421Z 34007KT M05/M06 A3028 RMK A01 T10501064  RH  090%=      5-min Rain = 0
KAM2 191422Z 34006KT M05/M06 A3028 RMK A01 T10491064  RH  090%=      5-min Rain = 0
KAM2 191423Z 34006KT M05/M06 A3028 RMK A01 T10491064  RH  090%=      5-min Rain = 0
KAM2 191424Z 34006KT M05/M06 A3028 RMK A01 T10491063  RH  090%=      5-min Rain = 0
KAM2 191425Z 34006KT M05/M06 A3028 RMK A01 T10481063  RH  089%=      5-min Rain = 0
KAM2 191426Z 34007KT M05/M06 A3028 RMK A01 T10481063  RH  089%=      5-min Rain = 0
KAM2 191427Z 34007KT M05/M06 A3028 RMK A01 T10471063  RH  089%=      5-min Rain = 0
KAM2 191428Z 34006KT M05/M06 A3028 RMK A01 T10471062  RH  089%=      5-min Rain = 0
KAM2 191429Z 34006KT M05/M06 A3028 RMK A01 T10461062  RH  088%=      5-min Rain = 0
KAM2 191430Z 35007KT M05/M06 A3029 RMK A01 T10461062  RH  088%=      5-min Rain = 0
KAM2 191431Z 34007KT M05/M06 A3029 RMK A01 T10451062  RH  088%=      5-min Rain = 0
KAM2 191432Z 34007KT M04/M06 A3029 RMK A01 T10441061  RH  088%=      5-min Rain = 0
KAM2 191433Z 35008KT M04/M06 A3029 RMK A01 T10441061  RH  088%=      5-min Rain = 0
KAM2 191434Z 34008KT M04/M06 A3029 RMK A01 T10431061  RH  088%=      5-min Rain = 0
KAM2 191435Z 34008KT M04/M06 A3029 RMK A01 T10421060  RH  087%=      5-min Rain = 0
KAM2 191436Z 35008KT M04/M06 A3029 RMK A01 T10421060  RH  087%=      5-min Rain = 0
KAM2 191437Z 35009KT M04/M06 A3029 RMK A01 T10411060  RH  087%=      5-min Rain = 0
KAM2 191438Z 35007KT M04/M06 A3029 RMK A01 T10401060  RH  086%=      5-min Rain = 0
KAM2 191439Z 35007KT M04/M06 A3029 RMK A01 T10401059  RH  086%=      5-min Rain = 0
KAM2 191440Z 35008KT M04/M06 A3029 RMK A01 T10391059  RH  086%=      5-min Rain = 0
KAM2 191441Z 36009KT M04/M06 A3029 RMK A01 T10381059  RH  086%=      5-min Rain = 0
KAM2 191442Z 35008KT M04/M06 A3029 RMK A01 T10371058  RH  085%=      5-min Rain = 0
KAM2 191443Z 36009KT M04/M06 A3029 RMK A01 T10371058  RH  085%=      5-min Rain = 0
KAM2 191444Z 36010KT M04/M06 A3029 RMK A01 T10361057  RH  085%=      5-min Rain = 0
KAM2 191445Z 36012KT M03/M06 A3029 RMK A01 T10341055  RH  086%=      5-min Rain = 0
KAM2 191446Z 36012KT M03/M05 A3029 RMK A01 T10321054  RH  085%=      5-min Rain = 0
KAM2 191447Z 36012KT M03/M05 A3029 RMK A01 T10301053  RH  084%=      5-min Rain = 0
KAM2 191448Z 35014KT M03/M05 A3029 RMK A01 T10291053  RH  084%=      5-min Rain = 0
KAM2 191449Z 36013KT M03/M05 A3029 RMK A01 T10291053  RH  083%=      5-min Rain = 0
KAM2 191450Z 36015KT M03/M05 A3029 RMK A01 T10281053  RH  083%=      5-min Rain = 0
KAM2 191451Z 36014KT M03/M05 A3029 RMK A01 T10271053  RH  082%=      5-min Rain = 0
KAM2 191452Z 36011KT M03/M05 A3029 RMK A01 T10271053  RH  082%=      5-min Rain = 0
KAM2 191453Z 00015KT M03/M05 A3029 RMK A01 T10271053  RH  082%=      5-min Rain = 0
KAM2 191454Z 01014KT M03/M05 A303 RMK A01 T10271053  RH  082%=      5-min Rain = 0
KAM2 191455Z 00013KT M03/M05 A303 RMK A01 T10261053  RH  082%=      5-min Rain = 0
KAM2 191456Z 00011KT M03/M05 A303 RMK A01 T10261052  RH  082%=      5-min Rain = 0
KAM2 191457Z 00013KT M03/M05 A303 RMK A01 T10251051  RH  082%=      5-min Rain = 0
KAM2 191458Z 01013KT M03/M05 A303 RMK A01 T10251051  RH  082%=      5-min Rain = 0
KAM2 191459Z 01014KT M03/M05 A303 RMK A01 T10251051  RH  082%=      5-min Rain = 0
KAM2 191500Z 00013KT M03/M05 A303 RMK A01 T10251052  RH  082%=      5-min Rain = 0
KAM2 191501Z 00012KT M02/M05 A303 RMK A01 T10241051  RH  082%=      5-min Rain = 0
KAM2 191502Z 00013KT M02/M05 A303 RMK A01 T10241051  RH  082%=      5-min Rain = 0
KAM2 191503Z 36012KT M02/M05 A303 RMK A01 T10231052  RH  081%=      5-min Rain = 0
KAM2 191504Z 00012KT M02/M05 A303 RMK A01 T10231051  RH  081%=      5-min Rain = 0
KAM2 191505Z 36013KT M02/M05 A303 RMK A01 T10231051  RH  081%=      5-min Rain = 0
KAM2 191506Z 36011KT M02/M05 A303 RMK A01 T10221051  RH  081%=      5-min Rain = 0
KAM2 191507Z 36009KT M02/M05 A303 RMK A01 T10221050  RH  081%=      5-min Rain = 0
KAM2 191508Z 35010KT M02/M05 A303 RMK A01 T10211049  RH  081%=      5-min Rain = 0
KAM2 191509Z 35010KT M02/M05 A303 RMK A01 T10201049  RH  081%=      5-min Rain = 0
KAM2 191510Z 36012KT M02/M05 A303 RMK A01 T10201050  RH  080%=      5-min Rain = 0
KAM2 191511Z 36012KT M02/M05 A303 RMK A01 T10201051  RH  079%=      5-min Rain = 0
KAM2 191512Z 36011KT M02/M05 A303 RMK A01 T10201052  RH  079%=      5-min Rain = 0
KAM2 191513Z 35011KT M02/M05 A303 RMK A01 T10201050  RH  079%=      5-min Rain = 0
KAM2 191514Z 34011KT M02/M05 A303 RMK A01 T10191051  RH  079%=      5-min Rain = 0
KAM2 191515Z 34009KT M02/M05 A303 RMK A01 T10191051  RH  079%=      5-min Rain = 0
KAM2 191516Z 35011KT M02/M05 A303 RMK A01 T10181050  RH  079%=      5-min Rain = 0
KAM2 191517Z 35010KT M02/M05 A303 RMK A01 T10181050  RH  079%=      5-min Rain = 0
KAM2 191518Z 35010KT M02/M05 A303 RMK A01 T10181051  RH  078%=      5-min Rain = 0
KAM2 191519Z 36009KT M02/M05 A303 RMK A01 T10181051  RH  078%=      5-min Rain = 0
KAM2 191520Z 35012KT M02/M05 A303 RMK A01 T10171050  RH  078%=      5-min Rain = 0
KAM2 191521Z 35010KT M02/M05 A303 RMK A01 T10171052  RH  077%=      5-min Rain = 0
KAM2 191522Z 36011KT M02/M05 A303 RMK A01 T10181052  RH  077%=      5-min Rain = 0
KAM2 191523Z 35010KT M02/M05 A303 RMK A01 T10181052  RH  077%=      5-min Rain = 0
KAM2 191524Z 35011KT M02/M05 A3031 RMK A01 T10181053  RH  077%=      5-min Rain = 0
KAM2 191525Z 36012KT M02/M05 A3031 RMK A01 T10181053  RH  077%=      5-min Rain = 0
KAM2 191526Z 35009KT M02/M05 A3031 RMK A01 T10181052  RH  077%=      5-min Rain = 0
KAM2 191527Z 36014KT M02/M05 A3031 RMK A01 T10171051  RH  078%=      5-min Rain = 0
KAM2 191528Z 35013KT M02/M05 A3031 RMK A01 T10171052  RH  077%=      5-min Rain = 0
KAM2 191529Z 00011KT M02/M05 A3031 RMK A01 T10181054  RH  077%=      5-min Rain = 0
KAM2 191530Z 00011KT M02/M05 A3031 RMK A01 T10181053  RH  077%=      5-min Rain = 0
KAM2 191531Z 35010KT M02/M05 A3031 RMK A01 T10171052  RH  077%=      5-min Rain = 0
KAM2 191532Z 35010KT M02/M05 A3031 RMK A01 T10151049  RH  078%=      5-min Rain = 0
KAM2 191533Z 00011KT M01/M05 A3031 RMK A01 T10141049  RH  077%=      5-min Rain = 0
KAM2 191534Z 35010KT M01/M05 A3031 RMK A01 T10141050  RH  076%=      5-min Rain = 0
KAM2 191535Z 36009KT M01/M05 A3031 RMK A01 T10141050  RH  077%=      5-min Rain = 0
KAM2 191536Z 34012KT M01/M05 A3031 RMK A01 T10141050  RH  076%=      5-min Rain = 0
KAM2 191537Z 34013KT M01/M05 A3031 RMK A01 T10141051  RH  076%=      5-min Rain = 0
KAM2 191538Z 35011KT M01/M05 A3031 RMK A01 T10141051  RH  076%=      5-min Rain = 0
KAM2 191539Z 35013KT M01/M05 A3031 RMK A01 T10141051  RH  076%=      5-min Rain = 0
KAM2 191540Z 36012KT M01/M05 A3031 RMK A01 T10141051  RH  076%=      5-min Rain = 0
KAM2 191541Z 34009KT M02/M05 A3031 RMK A01 T10151050  RH  077%=      5-min Rain = 0
KAM2 191542Z 35010KT M01/M05 A3031 RMK A01 T10131049  RH  077%=      5-min Rain = 0
KAM2 191543Z 35010KT M01/M05 A3031 RMK A01 T10121048  RH  077%=      5-min Rain = 0
KAM2 191544Z 35012KT M01/M05 A3031 RMK A01 T10111048  RH  076%=      5-min Rain = 0
KAM2 191545Z 35014KT M01/M05 A3031 RMK A01 T10111048  RH  076%=      5-min Rain = 0
KAM2 191546Z 36015KT M01/M05 A3031 RMK A01 T10121049  RH  075%=      5-min Rain = 0
KAM2 191547Z 35014KT M01/M05 A3031 RMK A01 T10131051  RH  075%=      5-min Rain = 0
KAM2 191548Z 35011KT M01/M05 A3031 RMK A01 T10141052  RH  075%=      5-min Rain = 0
KAM2 191549Z 34011KT M01/M05 A3031 RMK A01 T10131049  RH  077%=      5-min Rain = 0
KAM2 191550Z 35011KT M01/M05 A3032 RMK A01 T10121049  RH  076%=      5-min Rain = 0
KAM2 191551Z 35014KT M01/M05 A3031 RMK A01 T10121050  RH  076%=      5-min Rain = 0
KAM2 191552Z 36015KT M01/M05 A3032 RMK A01 T10121050  RH  075%=      5-min Rain = 0
KAM2 191553Z 36014KT M01/M05 A3032 RMK A01 T10121051  RH  075%=      5-min Rain = 0
KAM2 191554Z 34012KT M01/M05 A3032 RMK A01 T10121050  RH  075%=      5-min Rain = 0
KAM2 191555Z 34014KT M01/M05 A3031 RMK A01 T10121050  RH  075%=      5-min Rain = 0
KAM2 191556Z 35014KT M01/M05 A3031 RMK A01 T10121052  RH  074%=      5-min Rain = 0
KAM2 191557Z 35011KT M01/M05 A3032 RMK A01 T10131051  RH  075%=      5-min Rain = 0
KAM2 191558Z 36015KT M01/M05 A3032 RMK A01 T10121050  RH  075%=      5-min Rain = 0
KAM2 191559Z 35014KT M01/M05 A3032 RMK A01 T10121051  RH  074%=      5-min Rain = 0
KAM2 191600Z 35012KT M01/M05 A3032 RMK A01 T10121051  RH  075%=      5-min Rain = 0
KAM2 191601Z 35013KT M01/M05 A3032 RMK A01 T10111049  RH  075%=      5-min Rain = 0
KAM2 191602Z 36013KT M01/M05 A3032 RMK A01 T10091048  RH  075%=      5-min Rain = 0
KAM2 191603Z 36013KT M01/M05 A3032 RMK A01 T10091049  RH  074%=      5-min Rain = 0
KAM2 191604Z 36014KT M01/M05 A3032 RMK A01 T10091049  RH  074%=      5-min Rain = 0
KAM2 191605Z 35013KT M01/M05 A3032 RMK A01 T10091049  RH  074%=      5-min Rain = 0
KAM2 191606Z 35014KT M01/M05 A3032 RMK A01 T10081049  RH  074%=      5-min Rain = 0
KAM2 191607Z 35015KT M01/M05 A3032 RMK A01 T10091050  RH  074%=      5-min Rain = 0
KAM2 191608Z 34014KT M01/M05 A3032 RMK A01 T10081049  RH  074%=      5-min Rain = 0
KAM2 191609Z 35015KT M01/M05 A3032 RMK A01 T10081049  RH  074%=      5-min Rain = 0
KAM2 191610Z 35014KT M01/M05 A3032 RMK A01 T10081050  RH  073%=      5-min Rain = 0
KAM2 191611Z 35014KT M01/M05 A3032 RMK A01 T10091050  RH  074%=      5-min Rain = 0
KAM2 191612Z 35014KT M01/M05 A3032 RMK A01 T10081048  RH  074%=      5-min Rain = 0
KAM2 191613Z 35014G19KT M01/M05 A3032 RMK A01 T10071048  RH  074%=      5-min Rain = 0
KAM2 191614Z 36015KT M01/M05 A3033 RMK A01 T10071047  RH  074%=      5-min Rain = 0
KAM2 191615Z 36014G19KT M01/M05 A3033 RMK A01 T10061048  RH  073%=      5-min Rain = 0
KAM2 191616Z 35013KT M01/M05 A3033 RMK A01 T10071049  RH  073%=      5-min Rain = 0
KAM2 191617Z 35015KT M01/M05 A3033 RMK A01 T10061046  RH  074%=      5-min Rain = 0
KAM2 191618Z 35017KT M00/M05 A3033 RMK A01 T10041046  RH  073%=      5-min Rain = 0
KAM2 191619Z 34015KT M01/M05 A3033 RMK A01 T10051048  RH  073%=      5-min Rain = 0
KAM2 191620Z 35014KT M01/M05 A3033 RMK A01 T10051047  RH  073%=      5-min Rain = 0
KAM2 191621Z 35015KT M01/M05 A3033 RMK A01 T10051048  RH  073%=      5-min Rain = 0
KAM2 191622Z 36015KT M01/M05 A3033 RMK A01 T10071049  RH  073%=      5-min Rain = 0
KAM2 191623Z 36017KT M01/M05 A3033 RMK A01 T10071048  RH  074%=      5-min Rain = 0
KAM2 191624Z 35015KT M01/M05 A3033 RMK A01 T10071048  RH  074%=      5-min Rain = 0
KAM2 191625Z 35016KT M01/M05 A3033 RMK A01 T10061048  RH  073%=      5-min Rain = 0
KAM2 191626Z 33014KT M01/M05 A3033 RMK A01 T10071048  RH  073%=      5-min Rain = 0
KAM2 191627Z 33014KT M01/M05 A3033 RMK A01 T10061048  RH  074%=      5-min Rain = 0
KAM2 191628Z 35016KT M01/M05 A3033 RMK A01 T10051046  RH  074%=      5-min Rain = 0
KAM2 191629Z 35017KT M01/M05 A3032 RMK A01 T10051047  RH  073%=      5-min Rain = 0
KAM2 191630Z 35015KT M01/M05 A3033 RMK A01 T10061047  RH  074%=      5-min Rain = 0
KAM2 191631Z 35013KT M01/M04 A3033 RMK A01 T10051044  RH  075%=      5-min Rain = 0
KAM2 191632Z 35015KT M00/M04 A3033 RMK A01 T10041044  RH  074%=      5-min Rain = 0
KAM2 191633Z 35013KT M01/M05 A3033 RMK A01 T10051047  RH  073%=      5-min Rain = 0
KAM2 191634Z 36017KT M01/M05 A3033 RMK A01 T10061047  RH  074%=      5-min Rain = 0
KAM2 191635Z 35015KT M01/M05 A3033 RMK A01 T10061047  RH  074%=      5-min Rain = 0
KAM2 191636Z 35017KT M01/M05 A3033 RMK A01 T10061045  RH  074%=      5-min Rain = 0
KAM2 191637Z 36016KT M01/M05 A3033 RMK A01 T10061046  RH  074%=      5-min Rain = 0
KAM2 191638Z 35013KT M01/M05 A3033 RMK A01 T10061046  RH  075%=      5-min Rain = 0
KAM2 191639Z 00013G18KT M01/M05 A3033 RMK A01 T10061045  RH  075%=      5-min Rain = 0
KAM2 191640Z 01016KT M00/M04 A3033 RMK A01 T10041043  RH  075%=      5-min Rain = 0
KAM2 191641Z 36016KT M01/M04 A3033 RMK A01 T10051044  RH  075%=      5-min Rain = 0
KAM2 191642Z 34014KT M01/M05 A3033 RMK A01 T10061047  RH  074%=      5-min Rain = 0
KAM2 191643Z 36014KT M01/M05 A3033 RMK A01 T10071046  RH  075%=      5-min Rain = 0
KAM2 191644Z 00016KT M01/M05 A3033 RMK A01 T10061046  RH  075%=      5-min Rain = 0
KAM2 191645Z 00013KT M01/M05 A3033 RMK A01 T10061045  RH  075%=      5-min Rain = 0
KAM2 191646Z 36015KT M01/M04 A3033 RMK A01 T10051043  RH  076%=      5-min Rain = 0
KAM2 191647Z 35014KT M01/M05 A3033 RMK A01 T10051045  RH  074%=      5-min Rain = 0
KAM2 191648Z 35016KT M01/M05 A3033 RMK A01 T10061046  RH  074%=      5-min Rain = 0
KAM2 191649Z 35014KT M01/M05 A3033 RMK A01 T10061047  RH  074%=      5-min Rain = 0
KAM2 191650Z 35012G17KT M01/M04 A3033 RMK A01 T10061044  RH  076%=      5-min Rain = 0
KAM2 191651Z 35012KT M00/M04 A3033 RMK A01 T10041044  RH  075%=      5-min Rain = 0
KAM2 191652Z 34013KT M00/M04 A3033 RMK A01 T10041044  RH  074%=      5-min Rain = 0
KAM2 191653Z 34014KT M01/M05 A3033 RMK A01 T10051045  RH  074%=      5-min Rain = 0
KAM2 191654Z 35013KT M00/M04 A3033 RMK A01 T10041043  RH  074%=      5-min Rain = 0
KAM2 191655Z 35015KT M01/M05 A3033 RMK A01 T10051045  RH  074%=      5-min Rain = 0
KAM2 191656Z 35012KT M01/M05 A3033 RMK A01 T10071048  RH  074%=      5-min Rain = 0
KAM2 191657Z 35012KT M01/M05 A3033 RMK A01 T10091048  RH  075%=      5-min Rain = 0
KAM2 191658Z 36012KT M01/M05 A3033 RMK A01 T10071045  RH  076%=      5-min Rain = 0
KAM2 191659Z 35012KT M01/M04 A3033 RMK A01 T10051043  RH  076%=      5-min Rain = 0
KAM2 191700Z 36013KT M01/M05 A3033 RMK A01 T10051045  RH  075%=      5-min Rain = 0
KAM2 191701Z 35012KT M01/M05 A3033 RMK A01 T10051046  RH  074%=      5-min Rain = 0
KAM2 191702Z 00014KT M00/M04 A3033 RMK A01 T10041041  RH  076%=      5-min Rain = 0
KAM2 191703Z 00011KT M00/M04 A3033 RMK A01 T10011040  RH  075%=      5-min Rain = 0
KAM2 191704Z 01015KT 00/04 A3033 RMK A01 T00000-40  RH  074%=      5-min Rain = 0
KAM2 191705Z 36015KT M00/M04 A3033 RMK A01 T10021044  RH  073%=      5-min Rain = 0
KAM2 191706Z 35015KT M00/M04 A3033 RMK A01 T10021043  RH  074%=      5-min Rain = 0
KAM2 191707Z 35013KT M00/M04 A3033 RMK A01 T10021043  RH  074%=      5-min Rain = 0
KAM2 191708Z 34012KT M00/M04 A3033 RMK A01 T10021043  RH  074%=      5-min Rain = 0
KAM2 191709Z 35015KT 00/04 A3033 RMK A01 T00000-40  RH  074%=      5-min Rain = 0
KAM2 191710Z 33012KT 00/04 A3033 RMK A01 T00-00-43  RH  073%=      5-min Rain = 0
KAM2 191711Z 34014KT M00/M04 A3033 RMK A01 T10011043  RH  073%=      5-min Rain = 0
KAM2 191712Z 36016KT M00/M05 A3033 RMK A01 T10021045  RH  073%=      5-min Rain = 0
KAM2 191713Z 00014KT M00/M05 A3033 RMK A01 T10031045  RH  073%=      5-min Rain = 0
KAM2 191714Z 35012KT M00/M05 A3033 RMK A01 T10031045  RH  074%=      5-min Rain = 0
KAM2 191715Z 34013KT M00/M04 A3033 RMK A01 T10021043  RH  074%=      5-min Rain = 0
KAM2 191716Z 34013KT M00/M04 A3033 RMK A01 T10021044  RH  073%=      5-min Rain = 0
KAM2 191717Z 35011KT M00/M04 A3033 RMK A01 T10021044  RH  073%=      5-min Rain = 0
KAM2 191718Z 35009KT M00/M04 A3033 RMK A01 T10031043  RH  074%=      5-min Rain = 0
KAM2 191719Z 00011KT M00/M04 A3034 RMK A01 T10011040  RH  075%=      5-min Rain = 0
KAM2 191720Z 36013KT 00/M04 A3033 RMK A01 T00011039  RH  074%=      5-min Rain = 0
KAM2 191721Z 35014KT 00/M04 A3034 RMK A01 T00021040  RH  073%=      5-min Rain = 0
KAM2 191722Z 34011KT 00/M04 A3034 RMK A01 T00021041  RH  073%=      5-min Rain = 0
KAM2 191723Z 33011KT 00/04 A3033 RMK A01 T00000-44  RH  072%=      5-min Rain = 0
KAM2 191724Z 35013KT M00/M04 A3033 RMK A01 T10011044  RH  073%=      5-min Rain = 0
KAM2 191725Z 36014KT 00/04 A3034 RMK A01 T00000-41  RH  074%=      5-min Rain = 0
KAM2 191726Z 36014KT 00/M04 A3034 RMK A01 T00011041  RH  073%=      5-min Rain = 0
KAM2 191727Z 36014KT 00/M04 A3034 RMK A01 T00021040  RH  073%=      5-min Rain = 0
KAM2 191728Z 36015G20KT 00/M04 A3034 RMK A01 T00021041  RH  073%=      5-min Rain = 0
KAM2 191729Z 35016KT 00/M04 A3034 RMK A01 T00031040  RH  073%=      5-min Rain = 0
KAM2 191730Z 34013KT 00/M04 A3034 RMK A01 T00031041  RH  072%=      5-min Rain = 0
KAM2 191731Z 34015KT 00/M04 A3034 RMK A01 T00041041  RH  072%=      5-min Rain = 0
KAM2 191732Z 33012KT 00/M04 A3034 RMK A01 T00031042  RH  072%=      5-min Rain = 0
KAM2 191733Z 33009KT 01/M04 A3034 RMK A01 T00051040  RH  072%=      5-min Rain = 0
KAM2 191734Z 36011KT 01/M04 A3034 RMK A01 T00071037  RH  072%=      5-min Rain = 0
KAM2 191735Z 35014KT 01/M04 A3034 RMK A01 T00091036  RH  072%=      5-min Rain = 0
KAM2 191736Z 35012KT 01/M04 A3034 RMK A01 T00081041  RH  070%=      5-min Rain = 0
KAM2 191737Z 34013KT 01/M04 A3034 RMK A01 T00071040  RH  071%=      5-min Rain = 0
KAM2 191738Z 34018KT 01/M04 A3034 RMK A01 T00071041  RH  070%=      5-min Rain = 0
KAM2 191739Z 35014KT 01/M04 A3034 RMK A01 T00061042  RH  070%=      5-min Rain = 0
KAM2 191740Z 35014KT 01/M04 A3034 RMK A01 T00071040  RH  071%=      5-min Rain = 0
KAM2 191741Z 35015KT 01/M04 A3034 RMK A01 T00051043  RH  070%=      5-min Rain = 0
KAM2 191742Z 35012KT 01/M04 A3034 RMK A01 T00051041  RH  071%=      5-min Rain = 0
KAM2 191743Z 34011KT 01/M04 A3034 RMK A01 T00071039  RH  072%=      5-min Rain = 0
KAM2 191744Z 35011KT 01/M04 A3034 RMK A01 T00071039  RH  071%=      5-min Rain = 0
KAM2 191745Z 35012KT 01/M04 A3034 RMK A01 T00081038  RH  071%=      5-min Rain = 0
KAM2 191746Z 35013KT 01/M04 A3034 RMK A01 T00111036  RH  071%=      5-min Rain = 0
KAM2 191747Z 35012KT 01/M04 A3034 RMK A01 T00101040  RH  069%=      5-min Rain = 0
KAM2 191748Z 35011KT 01/M04 A3034 RMK A01 T00071041  RH  070%=      5-min Rain = 0
KAM2 191749Z 35013KT 01/M04 A3034 RMK A01 T00101037  RH  071%=      5-min Rain = 0
KAM2 191750Z 35012KT 01/M04 A3034 RMK A01 T00101038  RH  070%=      5-min Rain = 0
KAM2 191751Z 35011KT 01/M04 A3034 RMK A01 T00091038  RH  070%=      5-min Rain = 0
KAM2 191752Z 34010KT 01/M04 A3034 RMK A01 T00101038  RH  070%=      5-min Rain = 0
KAM2 191753Z 35008KT 01/M04 A3034 RMK A01 T00111037  RH  070%=      5-min Rain = 0
KAM2 191754Z 35009G14KT 01/M03 A3034 RMK A01 T00141034  RH  071%=      5-min Rain = 0
KAM2 191755Z 33013KT 02/M03 A3034 RMK A01 T00161034  RH  069%=      5-min Rain = 0
KAM2 191756Z 33013KT 02/M04 A3034 RMK A01 T00151037  RH  068%=      5-min Rain = 0
KAM2 191757Z 33013KT 01/M04 A3034 RMK A01 T00131040  RH  068%=      5-min Rain = 0
KAM2 191758Z 33012KT 01/M04 A3034 RMK A01 T00121040  RH  068%=      5-min Rain = 0
KAM2 191759Z 34008KT 01/M04 A3034 RMK A01 T00131037  RH  069%=      5-min Rain = 0
KAM2 191800Z 33010KT 02/M04 A3034 RMK A01 T00151036  RH  069%=      5-min Rain = 0
KAM2 191801Z 34009KT 02/M03 A3033 RMK A01 T00171034  RH  069%=      5-min Rain = 0
KAM2 191802Z 35013KT 02/M04 A3033 RMK A01 T00181036  RH  067%=      5-min Rain = 0
KAM2 191803Z 34013KT 02/M04 A3033 RMK A01 T00161038  RH  067%=      5-min Rain = 0
KAM2 191804Z 35011KT 01/M04 A3033 RMK A01 T00141039  RH  067%=      5-min Rain = 0
KAM2 191805Z 00013KT 02/M04 A3033 RMK A01 T00151038  RH  068%=      5-min Rain = 0
KAM2 191806Z 35013KT 01/M04 A3033 RMK A01 T00131040  RH  067%=      5-min Rain = 0
KAM2 191807Z 34011KT 01/M04 A3033 RMK A01 T00121041  RH  068%=      5-min Rain = 0
KAM2 191808Z 34010KT 01/M04 A3033 RMK A01 T00111039  RH  069%=      5-min Rain = 0
KAM2 191809Z 35011KT 01/M04 A3033 RMK A01 T00141036  RH  069%=      5-min Rain = 0
KAM2 191810Z 35013KT 02/M03 A3033 RMK A01 T00171034  RH  069%=      5-min Rain = 0
KAM2 191811Z 00012KT 02/M04 A3033 RMK A01 T00181035  RH  068%=      5-min Rain = 0
KAM2 191812Z 35011KT 02/M04 A3033 RMK A01 T00161039  RH  067%=      5-min Rain = 0
KAM2 191813Z 33010KT 01/M04 A3033 RMK A01 T00141040  RH  067%=      5-min Rain = 0
KAM2 191814Z 36012KT 02/M04 A3033 RMK A01 T00151037  RH  068%=      5-min Rain = 0
KAM2 191815Z 35012KT 02/M04 A3033 RMK A01 T00181035  RH  068%=      5-min Rain = 0
KAM2 191816Z 36014KT 02/M04 A3033 RMK A01 T00191035  RH  068%=      5-min Rain = 0
KAM2 191817Z 35011KT 02/M04 A3033 RMK A01 T00181037  RH  067%=      5-min Rain = 0
KAM2 191818Z 35009KT 02/M04 A3033 RMK A01 T00181036  RH  067%=      5-min Rain = 0
KAM2 191819Z 34008KT 02/M03 A3032 RMK A01 T00211031  RH  068%=      5-min Rain = 0
KAM2 191820Z 33012KT 02/M03 A3032 RMK A01 T00231033  RH  066%=      5-min Rain = 0
KAM2 191821Z 33013KT 02/M04 A3032 RMK A01 T00221037  RH  065%=      5-min Rain = 0
KAM2 191822Z 35009KT 02/M04 A3032 RMK A01 T00191038  RH  066%=      5-min Rain = 0
KAM2 191823Z 36012KT 02/M03 A3032 RMK A01 T00211034  RH  067%=      5-min Rain = 0
KAM2 191824Z 35011G16KT 02/M03 A3032 RMK A01 T00231033  RH  066%=      5-min Rain = 0
KAM2 191825Z 35012KT 02/M04 A3032 RMK A01 T00211036  RH  066%=      5-min Rain = 0
KAM2 191826Z 36014KT 02/M04 A3032 RMK A01 T00211035  RH  066%=      5-min Rain = 0
KAM2 191827Z 35014KT 02/M04 A3032 RMK A01 T00211035  RH  066%=      5-min Rain = 0
KAM2 191828Z 35014KT 02/M04 A3032 RMK A01 T00211036  RH  066%=      5-min Rain = 0
KAM2 191829Z 35011KT 02/M04 A3032 RMK A01 T00201037  RH  066%=      5-min Rain = 0
KAM2 191830Z 35015KT 02/M03 A3032 RMK A01 T00211034  RH  067%=      5-min Rain = 0
KAM2 191831Z 34013KT 02/M03 A3032 RMK A01 T00231034  RH  066%=      5-min Rain = 0
KAM2 191832Z 34014KT 02/M04 A3032 RMK A01 T00231035  RH  065%=      5-min Rain = 0
KAM2 191833Z 35016KT 02/M03 A3032 RMK A01 T00231034  RH  066%=      5-min Rain = 0
KAM2 191834Z 34013KT 02/M04 A3031 RMK A01 T00231036  RH  065%=      5-min Rain = 0
KAM2 191835Z 35013KT 02/M04 A3031 RMK A01 T00221036  RH  065%=      5-min Rain = 0
KAM2 191836Z 00011KT 02/M04 A3031 RMK A01 T00221036  RH  066%=      5-min Rain = 0
KAM2 191837Z 34014KT 02/M03 A3031 RMK A01 T00241033  RH  066%=      5-min Rain = 0
KAM2 191838Z 33016KT 02/M04 A3031 RMK A01 T00241036  RH  065%=      5-min Rain = 0
KAM2 191839Z 35015KT 02/M04 A3031 RMK A01 T00221038  RH  065%=      5-min Rain = 0
KAM2 191840Z 34013KT 02/M04 A3031 RMK A01 T00211037  RH  065%=      5-min Rain = 0
KAM2 191841Z 34012G18KT 02/M04 A3031 RMK A01 T00211036  RH  066%=      5-min Rain = 0
KAM2 191842Z 34015KT 02/M03 A3031 RMK A01 T00241033  RH  066%=      5-min Rain = 0
KAM2 191843Z 34013KT 03/M03 A3031 RMK A01 T00251034  RH  065%=      5-min Rain = 0
KAM2 191844Z 33012KT 03/M04 A3031 RMK A01 T00261035  RH  065%=      5-min Rain = 0
KAM2 191845Z 33013KT 03/M03 A3031 RMK A01 T00271034  RH  064%=      5-min Rain = 0
KAM2 191846Z 33014KT 03/M04 A3031 RMK A01 T00261035  RH  064%=      5-min Rain = 0
KAM2 191847Z 35015KT 03/M04 A3031 RMK A01 T00251036  RH  064%=      5-min Rain = 0
KAM2 191848Z 35013KT 03/M04 A3031 RMK A01 T00251035  RH  065%=      5-min Rain = 0
KAM2 191849Z 36010KT 03/M03 A3031 RMK A01 T00261033  RH  065%=      5-min Rain = 0
KAM2 191850Z 36012KT 03/M03 A3031 RMK A01 T00291031  RH  065%=      5-min Rain = 0
KAM2 191851Z 34011KT 03/M03 A3031 RMK A01 T00291033  RH  064%=      5-min Rain = 0
KAM2 191852Z 35014KT 03/M04 A303 RMK A01 T00281035  RH  063%=      5-min Rain = 0
KAM2 191853Z 36015KT 03/M04 A303 RMK A01 T00271035  RH  064%=      5-min Rain = 0
KAM2 191854Z 36013KT 03/M04 A303 RMK A01 T00271035  RH  064%=      5-min Rain = 0
KAM2 191855Z 35011KT 03/M03 A303 RMK A01 T00271033  RH  064%=      5-min Rain = 0
KAM2 191856Z 35011KT 03/M03 A303 RMK A01 T00291031  RH  065%=      5-min Rain = 0
KAM2 191857Z 35013KT 03/M03 A303 RMK A01 T00331029  RH  064%=      5-min Rain = 0
KAM2 191858Z 35013KT 03/M03 A303 RMK A01 T00341031  RH  062%=      5-min Rain = 0
KAM2 191859Z 35011KT 03/M03 A303 RMK A01 T00311034  RH  062%=      5-min Rain = 0
KAM2 191900Z 34013KT 03/M03 A303 RMK A01 T00321032  RH  063%=      5-min Rain = 0
KAM2 191901Z 35011KT 03/M03 A303 RMK A01 T00341031  RH  063%=      5-min Rain = 0
KAM2 191902Z 36012KT 04/M03 A303 RMK A01 T00351030  RH  062%=      5-min Rain = 0
KAM2 191903Z 34012KT 04/M03 A303 RMK A01 T00361031  RH  062%=      5-min Rain = 0
KAM2 191904Z 00013G18KT 03/M03 A303 RMK A01 T00331033  RH  062%=      5-min Rain = 0
KAM2 191905Z 36015KT 03/M03 A303 RMK A01 T00341032  RH  062%=      5-min Rain = 0
KAM2 191906Z 36014KT 03/M03 A303 RMK A01 T00341033  RH  062%=      5-min Rain = 0
KAM2 191907Z 35011KT 03/M03 A303 RMK A01 T00341033  RH  062%=      5-min Rain = 0
KAM2 191908Z 35013KT 03/M03 A303 RMK A01 T00341032  RH  062%=      5-min Rain = 0
KAM2 191909Z 34013KT 03/M03 A303 RMK A01 T00341032  RH  062%=      5-min Rain = 0
KAM2 191910Z 34011G16KT 04/M03 A303 RMK A01 T00351031  RH  062%=      5-min Rain = 0
KAM2 191911Z 34012KT 04/M03 A303 RMK A01 T00371030  RH  062%=      5-min Rain = 0
KAM2 191912Z 34011KT 04/M03 A303 RMK A01 T00381029  RH  061%=      5-min Rain = 0
KAM2 191913Z 35011KT 04/M03 A303 RMK A01 T00401028  RH  061%=      5-min Rain = 0
KAM2 191914Z 35011KT 04/M03 A303 RMK A01 T00421028  RH  060%=      5-min Rain = 0
KAM2 191915Z 35011KT 04/M03 A3029 RMK A01 T00381033  RH  060%=      5-min Rain = 0
KAM2 191916Z 36012G17KT 04/M03 A3029 RMK A01 T00381030  RH  062%=      5-min Rain = 0
KAM2 191917Z 35014KT 04/M03 A3029 RMK A01 T00401029  RH  061%=      5-min Rain = 0
KAM2 191918Z 35012KT 04/M03 A3029 RMK A01 T00401029  RH  061%=      5-min Rain = 0
KAM2 191919Z 35014KT 04/M03 A3029 RMK A01 T00401030  RH  060%=      5-min Rain = 0
KAM2 191920Z 33011KT 04/M03 A3029 RMK A01 T00401030  RH  060%=      5-min Rain = 0
KAM2 191921Z 32011KT 04/M03 A3029 RMK A01 T00401031  RH  060%=      5-min Rain = 0
KAM2 191922Z 34013KT 04/M03 A3029 RMK A01 T00401030  RH  060%=      5-min Rain = 0
KAM2 191923Z 34015KT 04/M03 A3029 RMK A01 T00411030  RH  060%=      5-min Rain = 0
KAM2 191924Z 34012KT 04/M03 A3029 RMK A01 T00391034  RH  059%=      5-min Rain = 0
KAM2 191925Z 35009KT 04/M03 A3029 RMK A01 T00381031  RH  061%=      5-min Rain = 0
KAM2 191926Z 35012KT 04/M03 A3029 RMK A01 T00391031  RH  060%=      5-min Rain = 0
KAM2 191927Z 34014KT 04/M03 A3029 RMK A01 T00401030  RH  060%=      5-min Rain = 0
KAM2 191928Z 32014KT 04/M03 A3029 RMK A01 T00401031  RH  060%=      5-min Rain = 0
KAM2 191929Z 32013KT 04/M03 A3029 RMK A01 T00411031  RH  060%=      5-min Rain = 0
KAM2 191930Z 33014KT 04/M03 A3028 RMK A01 T00401031  RH  060%=      5-min Rain = 0
KAM2 191931Z 34012KT 04/M03 A3028 RMK A01 T00411031  RH  060%=      5-min Rain = 0
KAM2 191932Z 00014KT 04/M03 A3029 RMK A01 T00431028  RH  060%=      5-min Rain = 0
KAM2 191933Z 34013KT 05/M03 A3028 RMK A01 T00451028  RH  059%=      5-min Rain = 0
KAM2 191934Z 34014KT 05/M03 A3028 RMK A01 T00461028  RH  059%=      5-min Rain = 0
KAM2 191935Z 34014KT 05/M03 A3028 RMK A01 T00471029  RH  058%=      5-min Rain = 0
KAM2 191936Z 33015KT 05/M03 A3028 RMK A01 T00471030  RH  057%=      5-min Rain = 0
KAM2 191937Z 32013KT 05/M03 A3028 RMK A01 T00461030  RH  058%=      5-min Rain = 0
KAM2 191938Z 34012KT 05/M03 A3028 RMK A01 T00481029  RH  058%=      5-min Rain = 0
KAM2 191939Z 34010KT 05/M03 A3028 RMK A01 T00461030  RH  058%=      5-min Rain = 0
KAM2 191940Z 33012KT 05/M03 A3028 RMK A01 T00471027  RH  058%=      5-min Rain = 0
KAM2 191941Z 34011G16KT 05/M03 A3028 RMK A01 T00491028  RH  057%=      5-min Rain = 0
KAM2 191942Z 36013KT 05/M03 A3028 RMK A01 T00501027  RH  057%=      5-min Rain = 0
KAM2 191943Z 36013KT 05/M03 A3028 RMK A01 T00511029  RH  057%=      5-min Rain = 0
KAM2 191944Z 35013KT 05/M03 A3028 RMK A01 T00501028  RH  057%=      5-min Rain = 0
KAM2 191945Z 34014KT 05/M03 A3028 RMK A01 T00521027  RH  057%=      5-min Rain = 0
KAM2 191946Z 34013KT 05/M03 A3028 RMK A01 T00511029  RH  056%=      5-min Rain = 0
KAM2 191947Z 34010KT 05/M03 A3028 RMK A01 T00501028  RH  057%=      5-min Rain = 0
KAM2 191948Z 34013KT 05/M03 A3028 RMK A01 T00511027  RH  057%=      5-min Rain = 0
KAM2 191949Z 35013KT 05/M03 A3028 RMK A01 T00501030  RH  056%=      5-min Rain = 0
KAM2 191950Z 33017KT 05/M03 A3027 RMK A01 T00491031  RH  056%=      5-min Rain = 0
KAM2 191951Z 34013KT 05/M03 A3027 RMK A01 T00481031  RH  057%=      5-min Rain = 0
KAM2 191952Z 32011KT 05/M03 A3027 RMK A01 T00471030  RH  057%=      5-min Rain = 0
KAM2 191953Z 34014KT 05/M03 A3027 RMK A01 T00501027  RH  057%=      5-min Rain = 0
KAM2 191954Z 34011KT 05/M03 A3027 RMK A01 T00521028  RH  057%=      5-min Rain = 0
KAM2 191955Z 35011KT 05/M03 A3027 RMK A01 T00531027  RH  056%=      5-min Rain = 0
KAM2 191956Z 35014KT 06/M02 A3027 RMK A01 T00571024  RH  056%=      5-min Rain = 0
KAM2 191957Z 34012G17KT 06/M03 A3027 RMK A01 T00581026  RH  055%=      5-min Rain = 0
KAM2 191958Z 34017KT 06/M03 A3027 RMK A01 T00561029  RH  054%=      5-min Rain = 0
KAM2 191959Z 34015KT 05/M03 A3027 RMK A01 T00531032  RH  054%=      5-min Rain = 0
KAM2 192000Z 33014KT 05/M03 A3027 RMK A01 T00521031  RH  055%=      5-min Rain = 0
KAM2 192001Z 33013KT 05/M03 A3027 RMK A01 T00511031  RH  055%=      5-min Rain = 0
KAM2 192002Z 33012KT 05/M03 A3027 RMK A01 T00511030  RH  056%=      5-min Rain = 0
KAM2 192003Z 34014KT 05/M03 A3027 RMK A01 T00531028  RH  056%=      5-min Rain = 0
KAM2 192004Z 33012KT 05/M03 A3027 RMK A01 T00541029  RH  055%=      5-min Rain = 0
KAM2 192005Z 00013KT 06/M03 A3027 RMK A01 T00551029  RH  055%=      5-min Rain = 0
KAM2 192006Z 36014KT 06/M03 A3027 RMK A01 T00571028  RH  054%=      5-min Rain = 0
KAM2 192007Z 35014KT 06/M03 A3027 RMK A01 T00571030  RH  053%=      5-min Rain = 0
KAM2 192008Z 35012KT 06/M03 A3027 RMK A01 T00571029  RH  054%=      5-min Rain = 0
KAM2 192009Z 34013KT 06/M03 A3027 RMK A01 T00571029  RH  054%=      5-min Rain = 0
KAM2 192010Z 35013KT 05/M03 A3027 RMK A01 T00531033  RH  054%=      5-min Rain = 0
KAM2 192011Z 36015KT 05/M03 A3027 RMK A01 T00521032  RH  055%=      5-min Rain = 0
KAM2 192012Z 35015KT 06/M03 A3027 RMK A01 T00551029  RH  054%=      5-min Rain = 0
KAM2 192013Z 36013KT 06/M03 A3027 RMK A01 T00561031  RH  054%=      5-min Rain = 0
KAM2 192014Z 35010KT 05/M03 A3027 RMK A01 T00541032  RH  054%=      5-min Rain = 0
KAM2 192015Z 35009KT 06/M03 A3027 RMK A01 T00551030  RH  054%=      5-min Rain = 0
KAM2 192016Z 35009KT 05/M03 A3027 RMK A01 T00541031  RH  054%=      5-min Rain = 0
KAM2 192017Z 33011KT 06/M03 A3026 RMK A01 T00561028  RH  055%=      5-min Rain = 0
KAM2 192018Z 00013KT 06/M03 A3026 RMK A01 T00601027  RH  054%=      5-min Rain = 0
KAM2 192019Z 36014KT 06/M03 A3026 RMK A01 T00601030  RH  053%=      5-min Rain = 0
KAM2 192020Z 34013KT 06/M03 A3026 RMK A01 T00601030  RH  053%=      5-min Rain = 0
KAM2 192021Z 35011KT 06/M03 A3026 RMK A01 T00601029  RH  053%=      5-min Rain = 0
KAM2 192022Z 36011KT 06/M03 A3026 RMK A01 T00611029  RH  053%=      5-min Rain = 0
KAM2 192023Z 35012KT 06/M03 A3026 RMK A01 T00601030  RH  052%=      5-min Rain = 0
KAM2 192024Z 35013KT 06/M03 A3026 RMK A01 T00611031  RH  052%=      5-min Rain = 0
KAM2 192025Z 35011KT 06/M03 A3026 RMK A01 T00611031  RH  052%=      5-min Rain = 0
KAM2 192026Z 36013KT 06/M03 A3026 RMK A01 T00621029  RH  052%=      5-min Rain = 0
KAM2 192027Z 35014KT 06/M03 A3026 RMK A01 T00621032  RH  051%=      5-min Rain = 0
KAM2 192028Z 36015KT 06/M03 A3026 RMK A01 T00591033  RH  052%=      5-min Rain = 0
KAM2 192029Z 36012KT 06/M03 A3026 RMK A01 T00591031  RH  052%=      5-min Rain = 0
KAM2 192030Z 35012KT 06/M03 A3026 RMK A01 T00611030  RH  052%=      5-min Rain = 0
KAM2 192031Z 36012KT 06/M03 A3026 RMK A01 T00611031  RH  052%=      5-min Rain = 0
KAM2 192032Z 00011KT 06/M03 A3026 RMK A01 T00621030  RH  052%=      5-min Rain = 0
KAM2 192033Z 00012KT 07/M03 A3026 RMK A01 T00651029  RH  051%=      5-min Rain = 0
KAM2 192034Z 36011KT 06/M03 A3026 RMK A01 T00641032  RH  050%=      5-min Rain = 0
KAM2 192035Z 34012KT 06/M03 A3026 RMK A01 T00631031  RH  051%=      5-min Rain = 0
KAM2 192036Z 35013KT 07/M03 A3026 RMK A01 T00651031  RH  050%=      5-min Rain = 0
KAM2 192037Z 35012KT 06/M03 A3026 RMK A01 T00641033  RH  050%=      5-min Rain = 0
KAM2 192038Z 34009KT 06/M03 A3026 RMK A01 T00621033  RH  051%=      5-min Rain = 0
KAM2 192039Z 34011KT 06/M03 A3026 RMK A01 T00611031  RH  052%=      5-min Rain = 0
KAM2 192040Z 33010KT 06/M03 A3026 RMK A01 T00621030  RH  052%=      5-min Rain = 0
KAM2 192041Z 00013KT 06/M03 A3026 RMK A01 T00631030  RH  052%=      5-min Rain = 0
KAM2 192042Z 00013KT 07/M03 A3026 RMK A01 T00651030  RH  051%=      5-min Rain = 0
KAM2 192043Z 01013KT 07/M03 A3026 RMK A01 T00661032  RH  050%=      5-min Rain = 0
KAM2 192044Z 36012KT 07/M03 A3026 RMK A01 T00651032  RH  050%=      5-min Rain = 0
KAM2 192045Z 00011KT 07/M03 A3026 RMK A01 T00671029  RH  050%=      5-min Rain = 0
KAM2 192046Z 36011KT 07/M03 A3026 RMK A01 T00671030  RH  050%=      5-min Rain = 0
KAM2 192047Z 35012KT 07/M03 A3026 RMK A01 T00651032  RH  050%=      5-min Rain = 0
KAM2 192048Z 34014KT 06/M03 A3026 RMK A01 T00641033  RH  050%=      5-min Rain = 0
KAM2 192049Z 34012KT 06/M03 A3025 RMK A01 T00641033  RH  050%=      5-min Rain = 0
KAM2 192050Z 32011KT 07/M03 A3025 RMK A01 T00661032  RH  050%=      5-min Rain = 0
KAM2 192051Z 35011KT 07/M03 A3025 RMK A01 T00661034  RH  049%=      5-min Rain = 0
KAM2 192052Z 35013KT 07/M03 A3025 RMK A01 T00671031  RH  050%=      5-min Rain = 0
KAM2 192053Z 33010KT 07/M03 A3025 RMK A01 T00681031  RH  049%=      5-min Rain = 0
KAM2 192054Z 33010KT 07/M03 A3025 RMK A01 T00671033  RH  049%=      5-min Rain = 0
KAM2 192055Z 34013KT 07/M03 A3025 RMK A01 T00671033  RH  049%=      5-min Rain = 0
KAM2 192056Z 34012KT 07/M03 A3025 RMK A01 T00681032  RH  049%=      5-min Rain = 0
KAM2 192057Z 00012KT 07/M03 A3025 RMK A01 T00691031  RH  049%=      5-min Rain = 0
KAM2 192058Z 36014KT 07/M03 A3025 RMK A01 T00711031  RH  048%=      5-min Rain = 0
KAM2 192059Z 36014KT 07/M03 A3025 RMK A01 T00731031  RH  048%=      5-min Rain = 0
KAM2 192100Z 35013KT 07/M03 A3025 RMK A01 T00731031  RH  048%=      5-min Rain = 0
KAM2 192101Z 36011KT 07/M03 A3025 RMK A01 T00711032  RH  048%=      5-min Rain = 0
KAM2 192102Z 36014KT 07/M03 A3025 RMK A01 T00701031  RH  048%=      5-min Rain = 0
KAM2 192103Z 35011KT 07/M03 A3025 RMK A01 T00711032  RH  048%=      5-min Rain = 0
KAM2 192104Z 34011KT 07/M03 A3025 RMK A01 T00701033  RH  048%=      5-min Rain = 0
KAM2 192105Z 35011G16KT 07/M03 A3025 RMK A01 T00691033  RH  048%=      5-min Rain = 0
KAM2 192106Z 00013KT 07/M03 A3025 RMK A01 T00701032  RH  048%=      5-min Rain = 0
KAM2 192107Z 34011KT 07/M03 A3025 RMK A01 T00731031  RH  048%=      5-min Rain = 0
KAM2 192108Z 35012KT 07/M03 A3025 RMK A01 T00741031  RH  047%=      5-min Rain = 0
KAM2 192109Z 35013KT 07/M03 A3025 RMK A01 T00741034  RH  046%=      5-min Rain = 0
KAM2 192110Z 35011KT 07/M04 A3025 RMK A01 T00741035  RH  046%=      5-min Rain = 0
KAM2 192111Z 34011KT 07/M04 A3025 RMK A01 T00741035  RH  046%=      5-min Rain = 0
KAM2 192112Z 35014KT 07/M04 A3025 RMK A01 T00741035  RH  046%=      5-min Rain = 0
KAM2 192113Z 34011KT 07/M04 A3025 RMK A01 T00731036  RH  046%=      5-min Rain = 0
KAM2 192114Z 34011KT 07/M04 A3025 RMK A01 T00711035  RH  047%=      5-min Rain = 0
KAM2 192115Z 35010KT 07/M04 A3025 RMK A01 T00701035  RH  047%=      5-min Rain = 0
KAM2 192116Z 33011KT 07/M03 A3025 RMK A01 T00711034  RH  047%=      5-min Rain = 0
KAM2 192117Z 34014KT 07/M04 A3025 RMK A01 T00731035  RH  046%=      5-min Rain = 0
KAM2 192118Z 34012KT 07/M04 A3025 RMK A01 T00721037  RH  046%=      5-min Rain = 0
KAM2 192119Z 33009KT 07/M04 A3025 RMK A01 T00701037  RH  046%=      5-min Rain = 0
KAM2 192120Z 35010KT 07/M03 A3025 RMK A01 T00721034  RH  047%=      5-min Rain = 0
KAM2 192121Z 01015KT 07/M04 A3025 RMK A01 T00731035  RH  046%=      5-min Rain = 0
KAM2 192122Z 35015KT 07/M04 A3025 RMK A01 T00731036  RH  046%=      5-min Rain = 0
KAM2 192123Z 34010KT 07/M04 A3025 RMK A01 T00721037  RH  046%=      5-min Rain = 0
KAM2 192124Z 34012KT 07/M04 A3025 RMK A01 T00721035  RH  046%=      5-min Rain = 0
KAM2 192125Z 34011KT 07/M04 A3025 RMK A01 T00731035  RH  046%=      5-min Rain = 0
KAM2 192126Z 36013KT 07/M04 A3025 RMK A01 T00741036  RH  045%=      5-min Rain = 0
KAM2 192127Z 35015KT 08/M04 A3025 RMK A01 T00751037  RH  045%=      5-min Rain = 0
KAM2 192128Z 36012KT 07/M04 A3025 RMK A01 T00711039  RH  045%=      5-min Rain = 0
KAM2 192129Z 36011KT 07/M04 A3025 RMK A01 T00701037  RH  046%=      5-min Rain = 0
KAM2 192130Z 00009KT 07/M04 A3025 RMK A01 T00691038  RH  046%=      5-min Rain = 0
KAM2 192131Z 00011KT 07/M04 A3025 RMK A01 T00711035  RH  047%=      5-min Rain = 0
KAM2 192132Z 36010KT 07/M04 A3025 RMK A01 T00731035  RH  046%=      5-min Rain = 0
KAM2 192133Z 36009KT 07/M04 A3025 RMK A01 T00741035  RH  046%=      5-min Rain = 0
KAM2 192134Z 35009KT 08/M04 A3025 RMK A01 T00751035  RH  046%=      5-min Rain = 0
KAM2 192135Z 00011KT 08/M04 A3025 RMK A01 T00751037  RH  045%=      5-min Rain = 0
KAM2 192136Z 00011KT 08/M04 A3025 RMK A01 T00761040  RH  044%=      5-min Rain = 0
KAM2 192137Z 35012KT 07/M04 A3025 RMK A01 T00741040  RH  044%=      5-min Rain = 0
KAM2 192138Z 36010KT 08/M04 A3025 RMK A01 T00751037  RH  045%=      5-min Rain = 0
KAM2 192139Z 35012KT 08/M04 A3025 RMK A01 T00761037  RH  045%=      5-min Rain = 0
KAM2 192140Z 35013KT 08/M04 A3025 RMK A01 T00751041  RH  044%=      5-min Rain = 0
KAM2 192141Z 35011KT 07/M04 A3025 RMK A01 T00721041  RH  044%=      5-min Rain = 0
KAM2 192142Z 35012KT 07/M04 A3025 RMK A01 T00721040  RH  045%=      5-min Rain = 0
KAM2 192143Z 35009KT 07/M04 A3025 RMK A01 T00721038  RH  045%=      5-min Rain = 0
KAM2 192144Z 34009KT 07/M04 A3025 RMK A01 T00731037  RH  045%=      5-min Rain = 0
KAM2 192145Z 34008KT 07/M04 A3025 RMK A01 T00741039  RH  045%=      5-min Rain = 0
KAM2 192146Z 33011KT 08/M04 A3025 RMK A01 T00751037  RH  045%=      5-min Rain = 0
KAM2 192147Z 34012KT 08/M04 A3025 RMK A01 T00761038  RH  044%=      5-min Rain = 0
KAM2 192148Z 34008KT 08/M04 A3025 RMK A01 T00761039  RH  044%=      5-min Rain = 0
KAM2 192149Z 33008KT 08/M04 A3025 RMK A01 T00761039  RH  044%=      5-min Rain = 0
KAM2 192150Z 33010KT 08/M04 A3025 RMK A01 T00771038  RH  044%=      5-min Rain = 0
KAM2 192151Z 33008KT 08/M04 A3025 RMK A01 T00771039  RH  044%=      5-min Rain = 0
KAM2 192152Z 35009KT 08/M04 A3025 RMK A01 T00781038  RH  044%=      5-min Rain = 0
KAM2 192153Z 35014KT 08/M04 A3025 RMK A01 T00791039  RH  043%=      5-min Rain = 0
KAM2 192154Z 36012KT 08/M04 A3026 RMK A01 T00761043  RH  043%=      5-min Rain = 0
KAM2 192155Z 35010KT 08/M04 A3026 RMK A01 T00751041  RH  043%=      5-min Rain = 0
KAM2 192156Z 36010KT 07/M04 A3026 RMK A01 T00741042  RH  044%=      5-min Rain = 0
KAM2 192157Z 35009KT 07/M04 A3026 RMK A01 T00731042  RH  044%=      5-min Rain = 0
KAM2 192158Z 00007KT 07/M04 A3026 RMK A01 T00731042  RH  044%=      5-min Rain = 0
KAM2 192159Z 00005KT 07/M04 A3026 RMK A01 T00731042  RH  044%=      5-min Rain = 0
KAM2 192200Z 00007KT 07/M04 A3025 RMK A01 T00731041  RH  044%=      5-min Rain = 0
KAM2 192201Z 36008KT 07/M04 A3026 RMK A01 T00731040  RH  044%=      5-min Rain = 0
KAM2 192202Z 35009KT 08/M04 A3026 RMK A01 T00751038  RH  044%=      5-min Rain = 0
KAM2 192203Z 34008KT 08/M04 A3026 RMK A01 T00761039  RH  044%=      5-min Rain = 0
KAM2 192204Z 35009KT 08/M04 A3026 RMK A01 T00771039  RH  044%=      5-min Rain = 0
KAM2 192205Z 35008KT 08/M04 A3026 RMK A01 T00771042  RH  043%=      5-min Rain = 0
KAM2 192206Z 00010KT 08/M04 A3026 RMK A01 T00771042  RH  043%=      5-min Rain = 0
KAM2 192207Z 35011KT 08/M04 A3026 RMK A01 T00761042  RH  043%=      5-min Rain = 0
KAM2 192208Z 35007KT 07/M04 A3026 RMK A01 T00741043  RH  043%=      5-min Rain = 0
KAM2 192209Z 34007KT 07/M04 A3026 RMK A01 T00731041  RH  044%=      5-min Rain = 0
KAM2 192210Z 35012KT 07/M04 A3026 RMK A01 T00721042  RH  044%=      5-min Rain = 0
KAM2 192211Z 36009KT 07/M04 A3026 RMK A01 T00731042  RH  044%=      5-min Rain = 0
KAM2 192212Z 35010KT 07/M04 A3026 RMK A01 T00741043  RH  043%=      5-min Rain = 0
KAM2 192213Z 34009KT 07/M05 A3026 RMK A01 T00731046  RH  042%=      5-min Rain = 0
KAM2 192214Z 36006KT 07/M05 A3026 RMK A01 T00741046  RH  042%=      5-min Rain = 0
KAM2 192215Z 00006KT 07/M05 A3026 RMK A01 T00741045  RH  042%=      5-min Rain = 0
KAM2 192216Z 36008KT 08/M04 A3026 RMK A01 T00761044  RH  042%=      5-min Rain = 0
KAM2 192217Z 35009KT 08/M04 A3026 RMK A01 T00751044  RH  042%=      5-min Rain = 0
KAM2 192218Z 36009KT 08/M04 A3025 RMK A01 T00751043  RH  043%=      5-min Rain = 0
KAM2 192219Z 00007KT 08/M05 A3026 RMK A01 T00751045  RH  042%=      5-min Rain = 0
KAM2 192220Z 35006KT 07/M05 A3026 RMK A01 T00741047  RH  042%=      5-min Rain = 0
KAM2 192221Z 35006KT 07/M05 A3026 RMK A01 T00731046  RH  042%=      5-min Rain = 0
KAM2 192222Z 36006KT 07/M04 A3026 RMK A01 T00741044  RH  043%=      5-min Rain = 0
KAM2 192223Z 01006KT 08/M04 A3026 RMK A01 T00751043  RH  043%=      5-min Rain = 0
KAM2 192224Z 01005KT 08/M04 A3026 RMK A01 T00751044  RH  043%=      5-min Rain = 0
KAM2 192225Z 36007KT 07/M04 A3026 RMK A01 T00741043  RH  043%=      5-min Rain = 0
KAM2 192226Z 36009KT 08/M04 A3026 RMK A01 T00751043  RH  043%=      5-min Rain = 0
KAM2 192227Z 36006KT 08/M04 A3026 RMK A01 T00751043  RH  043%=      5-min Rain = 0
KAM2 192228Z 36008KT 08/M04 A3025 RMK A01 T00751043  RH  043%=      5-min Rain = 0
KAM2 192229Z 34005KT 08/M04 A3025 RMK A01 T00751043  RH  043%=      5-min Rain = 0
KAM2 192230Z 00007G12KT 08/M04 A3025 RMK A01 T00761043  RH  043%=      5-min Rain = 0
KAM2 192231Z 01010KT 08/M05 A3025 RMK A01 T00761045  RH  042%=      5-min Rain = 0
KAM2 192232Z 01010KT 07/M05 A3025 RMK A01 T00741047  RH  042%=      5-min Rain = 0
KAM2 192233Z 00011KT 07/M05 A3025 RMK A01 T00741048  RH  042%=      5-min Rain = 0
KAM2 192234Z 36009KT 07/M05 A3025 RMK A01 T00741048  RH  042%=      5-min Rain = 0
KAM2 192235Z 00010KT 07/M05 A3025 RMK A01 T00731048  RH  042%=      5-min Rain = 0
KAM2 192236Z 01009KT 07/M05 A3025 RMK A01 T00731048  RH  042%=      5-min Rain = 0
KAM2 192237Z 01008KT 07/M05 A3025 RMK A01 T00731048  RH  042%=      5-min Rain = 0
KAM2 192238Z 36009KT 07/M05 A3025 RMK A01 T00741048  RH  042%=      5-min Rain = 0
KAM2 192239Z 36009KT 08/M05 A3025 RMK A01 T00751049  RH  041%=      5-min Rain = 0
KAM2 192240Z 36008KT 07/M05 A3025 RMK A01 T00741049  RH  041%=      5-min Rain = 0
KAM2 192241Z 36009KT 07/M05 A3025 RMK A01 T00741049  RH  041%=      5-min Rain = 0
KAM2 192242Z 35009KT 07/M05 A3025 RMK A01 T00741050  RH  041%=      5-min Rain = 0
KAM2 192243Z 35009KT 07/M05 A3025 RMK A01 T00741049  RH  041%=      5-min Rain = 0
KAM2 192244Z 33007KT 07/M05 A3025 RMK A01 T00741050  RH  041%=      5-min Rain = 0
KAM2 192245Z 01008KT 07/M05 A3025 RMK A01 T00731050  RH  041%=      5-min Rain = 0
KAM2 192246Z 00007KT 07/M05 A3025 RMK A01 T00731048  RH  042%=      5-min Rain = 0
KAM2 192247Z 34006KT 07/M05 A3025 RMK A01 T00741048  RH  042%=      5-min Rain = 0
KAM2 192248Z 36006KT 07/M05 A3025 RMK A01 T00741048  RH  042%=      5-min Rain = 0
KAM2 192249Z 35007KT 08/M05 A3025 RMK A01 T00751045  RH  042%=      5-min Rain = 0
KAM2 192250Z 34007KT 08/M05 A3025 RMK A01 T00751046  RH  042%=      5-min Rain = 0
KAM2 192251Z 34006KT 07/M05 A3025 RMK A01 T00741046  RH  042%=      5-min Rain = 0
KAM2 192252Z 34005KT 07/M05 A3025 RMK A01 T00731046  RH  042%=      5-min Rain = 0
KAM2 192253Z 36007KT 07/M05 A3025 RMK A01 T00731046  RH  043%=      5-min Rain = 0
KAM2 192254Z 00006KT 07/M05 A3025 RMK A01 T00731046  RH  043%=      5-min Rain = 0
KAM2 192255Z 00005KT 07/M05 A3026 RMK A01 T00721046  RH  043%=      5-min Rain = 0
KAM2 192256Z 01005KT 07/M05 A3026 RMK A01 T00721045  RH  043%=      5-min Rain = 0
KAM2 192257Z 00005KT 07/M04 A3026 RMK A01 T00721044  RH  043%=      5-min Rain = 0
KAM2 192258Z 00007KT 07/M04 A3026 RMK A01 T00741043  RH  043%=      5-min Rain = 0
KAM2 192259Z 01006KT 07/M05 A3026 RMK A01 T00741046  RH  042%=      5-min Rain = 0
KAM2 192300Z 01009KT 07/M05 A3026 RMK A01 T00741048  RH  042%=      5-min Rain = 0
KAM2 192301Z 36008KT 07/M05 A3026 RMK A01 T00731049  RH  042%=      5-min Rain = 0
KAM2 192302Z 36006KT 07/M05 A3026 RMK A01 T00721050  RH  042%=      5-min Rain = 0
KAM2 192303Z 01007KT 07/M05 A3026 RMK A01 T00721050  RH  042%=      5-min Rain = 0
KAM2 192304Z 01007KT 07/M05 A3026 RMK A01 T00721051  RH  041%=      5-min Rain = 0
KAM2 192305Z 01006KT 07/M05 A3026 RMK A01 T00721051  RH  041%=      5-min Rain = 0
KAM2 192306Z 01007KT 07/M05 A3026 RMK A01 T00721050  RH  041%=      5-min Rain = 0
KAM2 192307Z 01007KT 07/M05 A3026 RMK A01 T00721050  RH  042%=      5-min Rain = 0
KAM2 192308Z 01007KT 07/M05 A3026 RMK A01 T00721049  RH  042%=      5-min Rain = 0
KAM2 192309Z 00008KT 07/M05 A3026 RMK A01 T00711049  RH  042%=      5-min Rain = 0
KAM2 192310Z 00007KT 07/M05 A3026 RMK A01 T00701048  RH  043%=      5-min Rain = 0
KAM2 192311Z 36008KT 07/M05 A3026 RMK A01 T00691048  RH  043%=      5-min Rain = 0
KAM2 192312Z 36006KT 07/M05 A3026 RMK A01 T00681048  RH  043%=      5-min Rain = 0
KAM2 192313Z 00006KT 07/M05 A3027 RMK A01 T00681048  RH  044%=      5-min Rain = 0
KAM2 192314Z 01006KT 07/M05 A3027 RMK A01 T00681047  RH  044%=      5-min Rain = 0
KAM2 192315Z 01007KT 07/M05 A3027 RMK A01 T00691047  RH  043%=      5-min Rain = 0
KAM2 192316Z 02006KT 07/M05 A3026 RMK A01 T00691047  RH  043%=      5-min Rain = 0
KAM2 192317Z 02006KT 07/M05 A3026 RMK A01 T00691047  RH  043%=      5-min Rain = 0
KAM2 192318Z 02007KT 07/M05 A3026 RMK A01 T00691046  RH  044%=      5-min Rain = 0
KAM2 192319Z 02006KT 07/M05 A3026 RMK A01 T00691046  RH  044%=      5-min Rain = 0
KAM2 192320Z 02005KT 07/M05 A3026 RMK A01 T00681046  RH  044%=      5-min Rain = 0
KAM2 192321Z 03006KT 07/M05 A3026 RMK A01 T00681046  RH  044%=      5-min Rain = 0
KAM2 192322Z 03006KT 07/M05 A3026 RMK A01 T00681046  RH  044%=      5-min Rain = 0
KAM2 192323Z 03006KT 07/M05 A3026 RMK A01 T00681046  RH  044%=      5-min Rain = 0
KAM2 192324Z 03006KT 07/M05 A3026 RMK A01 T00681047  RH  044%=      5-min Rain = 0
KAM2 192325Z 03007KT 07/M05 A3026 RMK A01 T00681046  RH  044%=      5-min Rain = 0
KAM2 192326Z 03005KT 07/M05 A3026 RMK A01 T00671047  RH  044%=      5-min Rain = 0
KAM2 192327Z 04006KT 07/M05 A3026 RMK A01 T00671047  RH  044%=      5-min Rain = 0
KAM2 192328Z 04005KT 07/M05 A3026 RMK A01 T00671047  RH  044%=      5-min Rain = 0
KAM2 192329Z 03005KT 07/M05 A3026 RMK A01 T00661048  RH  044%=      5-min Rain = 0
KAM2 192330Z 03004KT 07/M05 A3026 RMK A01 T00661048  RH  044%=      5-min Rain = 0
KAM2 192331Z 04004KT 07/M05 A3026 RMK A01 T00661048  RH  044%=      5-min Rain = 0
KAM2 192332Z 04004KT 07/M05 A3026 RMK A01 T00661048  RH  044%=      5-min Rain = 0
KAM2 192333Z 04006KT 07/M05 A3026 RMK A01 T00651048  RH  044%=      5-min Rain = 0
KAM2 192334Z 03005KT 07/M05 A3026 RMK A01 T00651047  RH  045%=      5-min Rain = 0
KAM2 192335Z 04006KT 06/M05 A3026 RMK A01 T00641047  RH  045%=      5-min Rain = 0
KAM2 192336Z 04005KT 06/M05 A3026 RMK A01 T00641046  RH  045%=      5-min Rain = 0
KAM2 192337Z 04005KT 06/M05 A3026 RMK A01 T00641046  RH  045%=      5-min Rain = 0
KAM2 192338Z 04005KT 06/M05 A3026 RMK A01 T00631046  RH  046%=      5-min Rain = 0
KAM2 192339Z 05004KT 06/M05 A3026 RMK A01 T00621046  RH  046%=      5-min Rain = 0
KAM2 192340Z 05003KT 06/M05 A3026 RMK A01 T00611046  RH  046%=      5-min Rain = 0
KAM2 192341Z 04004KT 06/M05 A3026 RMK A01 T00611046  RH  046%=      5-min Rain = 0
KAM2 192342Z 05003KT 06/M05 A3026 RMK A01 T00601046  RH  047%=      5-min Rain = 0
KAM2 192343Z 05003KT 06/M05 A3026 RMK A01 T00601046  RH  047%=      5-min Rain = 0
KAM2 192344Z 05003KT 06/M05 A3026 RMK A01 T00591046  RH  047%=      5-min Rain = 0
KAM2 192345Z 05003KT 06/M05 A3026 RMK A01 T00581046  RH  047%=      5-min Rain = 0
KAM2 192346Z 05004KT 06/M05 A3026 RMK A01 T00571046  RH  047%=      5-min Rain = 0
KAM2 192347Z 05004KT 06/M05 A3026 RMK A01 T00561047  RH  047%=      5-min Rain = 0
KAM2 192348Z 05004KT 06/M05 A3026 RMK A01 T00561047  RH  048%=      5-min Rain = 0
KAM2 192349Z 06004KT 06/M05 A3026 RMK A01 T00551046  RH  048%=      5-min Rain = 0
KAM2 192350Z 06004KT 05/M05 A3026 RMK A01 T00541046  RH  048%=      5-min Rain = 0
KAM2 192351Z 06004KT 05/M05 A3026 RMK A01 T00531046  RH  049%=      5-min Rain = 0
KAM2 192352Z 06004KT 05/M05 A3026 RMK A01 T00511047  RH  049%=      5-min Rain = 0
KAM2 192353Z 06004KT 05/M05 A3026 RMK A01 T00501047  RH  050%=      5-min Rain = 0
KAM2 192354Z 06004KT 05/M05 A3027 RMK A01 T00491047  RH  050%=      5-min Rain = 0
KAM2 192355Z 06004KT 05/M05 A3027 RMK A01 T00481047  RH  050%=      5-min Rain = 0
KAM2 192356Z 06003KT 05/M05 A3027 RMK A01 T00471046  RH  051%=      5-min Rain = 0
KAM2 192357Z 06003KT 05/M05 A3027 RMK A01 T00471046  RH  051%=      5-min Rain = 0
KAM2 192358Z 07003KT 05/M05 A3027 RMK A01 T00471046  RH  051%=      5-min Rain = 0
KAM2 192359Z 08002KT 05/M05 A3027 RMK A01 T00471046  RH  051%=      5-min Rain = 0
KAM2 200000Z 09002KT 05/M05 A3027 RMK A01 T00461046  RH  051%=      5-min Rain = 0
KAM2 200001Z 09001KT 05/M05 A3027 RMK A01 T00451045  RH  052%=      5-min Rain = 0
KAM2 200002Z 11000KT 04/M04 A3027 RMK A01 T00441043  RH  053%=      5-min Rain = 0
KAM2 200003Z 13001KT 04/M04 A3027 RMK A01 T00421042  RH  054%=      5-min Rain = 0
KAM2 200004Z 13002KT 04/M04 A3027 RMK A01 T00401043  RH  054%=      5-min Rain = 0
KAM2 200005Z 13003KT 04/M05 A3027 RMK A01 T00391045  RH  054%=      5-min Rain = 0
KAM2 200006Z 14002KT 04/M05 A3027 RMK A01 T00391046  RH  054%=      5-min Rain = 0
KAM2 200007Z 15003KT 04/M05 A3027 RMK A01 T00391047  RH  054%=      5-min Rain = 0
KAM2 200008Z 14003KT 04/M05 A3026 RMK A01 T00381048  RH  053%=      5-min Rain = 0
KAM2 200009Z 13003KT 04/M05 A3026 RMK A01 T00371048  RH  054%=      5-min Rain = 0
KAM2 200010Z 13003KT 04/M05 A3027 RMK A01 T00351049  RH  054%=      5-min Rain = 0
KAM2 200011Z 13003KT 03/M05 A3027 RMK A01 T00341048  RH  055%=      5-min Rain = 0
KAM2 200012Z 12003KT 03/M05 A3026 RMK A01 T00331048  RH  055%=      5-min Rain = 0
KAM2 200013Z 12004KT 03/M05 A3026 RMK A01 T00321048  RH  056%=      5-min Rain = 0
KAM2 200014Z 12004KT 03/M05 A3026 RMK A01 T00311048  RH  056%=      5-min Rain = 0
KAM2 200015Z 11005KT 03/M05 A3026 RMK A01 T00301048  RH  057%=      5-min Rain = 0
KAM2 200016Z 12005KT 03/M05 A3026 RMK A01 T00291048  RH  057%=      5-min Rain = 0
KAM2 200017Z 11005KT 03/M05 A3026 RMK A01 T00291048  RH  057%=      5-min Rain = 0
KAM2 200018Z 11006KT 03/M05 A3026 RMK A01 T00291048  RH  057%=      5-min Rain = 0
KAM2 200019Z 11006KT 03/M05 A3026 RMK A01 T00281048  RH  057%=      5-min Rain = 0
KAM2 200020Z 12005KT 03/M05 A3026 RMK A01 T00281047  RH  058%=      5-min Rain = 0
KAM2 200021Z 11005KT 03/M05 A3026 RMK A01 T00291046  RH  058%=      5-min Rain = 0
KAM2 200022Z 11006KT 03/M05 A3026 RMK A01 T00291046  RH  058%=      5-min Rain = 0
KAM2 200023Z 11006KT 03/M05 A3026 RMK A01 T00291046  RH  058%=      5-min Rain = 0
KAM2 200024Z 11006KT 03/M05 A3027 RMK A01 T00291046  RH  058%=      5-min Rain = 0
KAM2 200025Z 11005KT 03/M05 A3027 RMK A01 T00291046  RH  058%=      5-min Rain = 0
KAM2 200026Z 11005KT 03/M05 A3027 RMK A01 T00291046  RH  058%=      5-min Rain = 0
KAM2 200027Z 11005KT 03/M05 A3027 RMK A01 T00291046  RH  058%=      5-min Rain = 0
KAM2 200028Z 11004KT 03/M05 A3027 RMK A01 T00271048  RH  058%=      5-min Rain = 0
KAM2 200029Z 11004KT 02/M05 A3027 RMK A01 T00221051  RH  058%=      5-min Rain = 0
KAM2 200030Z 11003KT 02/M05 A3027 RMK A01 T00181054  RH  059%=      5-min Rain = 0
KAM2 200031Z 11003KT 01/M05 A3027 RMK A01 T00141053  RH  061%=      5-min Rain = 0
KAM2 200032Z 10002KT 01/M05 A3027 RMK A01 T00121054  RH  062%=      5-min Rain = 0
KAM2 200033Z 10000KT 01/M05 A3027 RMK A01 T00111053  RH  062%=      5-min Rain = 0
KAM2 200034Z 09001KT 01/M05 A3027 RMK A01 T00101054  RH  062%=      5-min Rain = 0
KAM2 200035Z 11001KT 01/M05 A3027 RMK A01 T00101052  RH  063%=      5-min Rain = 0
KAM2 200036Z 09001KT 01/M05 A3026 RMK A01 T00101051  RH  064%=      5-min Rain = 0
KAM2 200037Z 09002KT 01/M05 A3026 RMK A01 T00091051  RH  064%=      5-min Rain = 0
KAM2 200038Z 11001KT 01/M05 A3026 RMK A01 T00101050  RH  064%=      5-min Rain = 0
KAM2 200039Z 14001KT 01/M05 A3026 RMK A01 T00111050  RH  064%=      5-min Rain = 0
KAM2 200040Z 17002KT 01/M05 A3026 RMK A01 T00121049  RH  064%=      5-min Rain = 0
KAM2 200041Z 19003KT 01/M05 A3026 RMK A01 T00141048  RH  064%=      5-min Rain = 0
KAM2 200042Z 19003KT 01/M05 A3026 RMK A01 T00131049  RH  063%=      5-min Rain = 0
KAM2 200043Z 18004KT 01/M05 A3026 RMK A01 T00121050  RH  063%=      5-min Rain = 0
KAM2 200044Z 19005KT 01/M05 A3026 RMK A01 T00101052  RH  064%=      5-min Rain = 0
KAM2 200045Z 18005KT 01/M05 A3026 RMK A01 T00081052  RH  064%=      5-min Rain = 0
KAM2 200046Z 18004KT 01/M05 A3026 RMK A01 T00071052  RH  065%=      5-min Rain = 0
KAM2 200047Z 16003KT 01/M05 A3026 RMK A01 T00061052  RH  065%=      5-min Rain = 0
KAM2 200048Z 16003KT 01/M05 A3026 RMK A01 T00061052  RH  065%=      5-min Rain = 0
KAM2 200049Z 15003KT 01/M05 A3026 RMK A01 T00061051  RH  065%=      5-min Rain = 0
KAM2 200050Z 15003KT 01/M05 A3026 RMK A01 T00061052  RH  065%=      5-min Rain = 0
KAM2 200051Z 15004KT 01/M05 A3026 RMK A01 T00061052  RH  065%=      5-min Rain = 0
KAM2 200052Z 15004KT 01/M05 A3026 RMK A01 T00061052  RH  065%=      5-min Rain = 0
KAM2 200053Z 15004KT 01/M05 A3026 RMK A01 T00061052  RH  065%=      5-min Rain = 0
KAM2 200054Z 16004KT 01/M05 A3026 RMK A01 T00051052  RH  066%=      5-min Rain = 0
KAM2 200055Z 16004KT 00/M05 A3026 RMK A01 T00041053  RH  066%=      5-min Rain = 0
KAM2 200056Z 16004KT 00/M05 A3026 RMK A01 T00031053  RH  066%=      5-min Rain = 0
KAM2 200057Z 16005KT 00/M05 A3026 RMK A01 T00031052  RH  067%=      5-min Rain = 0
KAM2 200058Z 17004KT 00/M05 A3025 RMK A01 T00021052  RH  067%=      5-min Rain = 0
KAM2 200059Z 17004KT 00/M05 A3025 RMK A01 T00011053  RH  067%=      5-min Rain = 0
KAM2 200100Z 17003KT 00/05 A3025 RMK A01 T00000-52  RH  068%=      5-min Rain = 0
KAM2 200101Z 17004KT 00/05 A3025 RMK A01 T00-00-52  RH  068%=      5-min Rain = 0
KAM2 200102Z 16003KT M00/M05 A3025 RMK A01 T10011052  RH  068%=      5-min Rain = 0
KAM2 200103Z 16003KT M00/M05 A3025 RMK A01 T10011052  RH  068%=      5-min Rain = 0
KAM2 200104Z 15003KT M00/M05 A3025 RMK A01 T10011052  RH  069%=      5-min Rain = 0
KAM2 200105Z 16003KT M00/M05 A3025 RMK A01 T10011051  RH  069%=      5-min Rain = 0
KAM2 200106Z 16003KT M00/M05 A3025 RMK A01 T10011050  RH  069%=      5-min Rain = 0
KAM2 200107Z 16003KT M00/M05 A3024 RMK A01 T10011050  RH  070%=      5-min Rain = 0
KAM2 200108Z 18003KT M00/M05 A3024 RMK A01 T10011049  RH  070%=      5-min Rain = 0
KAM2 200109Z 18004KT M00/M05 A3024 RMK A01 T10021049  RH  071%=      5-min Rain = 0
KAM2 200110Z 16003KT M00/M05 A3024 RMK A01 T10031050  RH  070%=      5-min Rain = 0
KAM2 200111Z 17003KT M00/M05 A3024 RMK A01 T10041051  RH  070%=      5-min Rain = 0
KAM2 200112Z 16004KT M00/M05 A3024 RMK A01 T10041051  RH  070%=      5-min Rain = 0
KAM2 200113Z 17004KT M00/M05 A3024 RMK A01 T10031050  RH  070%=      5-min Rain = 0
KAM2 200114Z 16005KT M00/M05 A3024 RMK A01 T10021049  RH  070%=      5-min Rain = 0
KAM2 200115Z 16005KT M00/M05 A3024 RMK A01 T10011049  RH  070%=      5-min Rain = 0
KAM2 200116Z 16007KT M00/M05 A3024 RMK A01 T10011050  RH  070%=      5-min Rain = 0
KAM2 200117Z 18005KT M00/M05 A3024 RMK A01 T10011050  RH  069%=      5-min Rain = 0
KAM2 200118Z 17005KT M00/M05 A3024 RMK A01 T10021052  RH  069%=      5-min Rain = 0
KAM2 200119Z 16004KT M00/M05 A3024 RMK A01 T10031053  RH  069%=      5-min Rain = 0
KAM2 200120Z 13005KT M00/M05 A3023 RMK A01 T10041053  RH  070%=      5-min Rain = 0
KAM2 200121Z 13004KT M00/M05 A3023 RMK A01 T10041050  RH  071%=      5-min Rain = 0
KAM2 200122Z 13003KT M00/M05 A3023 RMK A01 T10021048  RH  071%=      5-min Rain = 0
KAM2 200123Z 12004KT 00/05 A3023 RMK A01 T00000-48  RH  070%=      5-min Rain = 0
KAM2 200124Z 14003KT 00/05 A3023 RMK A01 T00000-49  RH  070%=      5-min Rain = 0
KAM2 200125Z 15002KT M00/M05 A3024 RMK A01 T10011048  RH  070%=      5-min Rain = 0
KAM2 200126Z 17003KT M00/M05 A3024 RMK A01 T10021050  RH  070%=      5-min Rain = 0
KAM2 200127Z 17004KT M00/M05 A3024 RMK A01 T10031051  RH  070%=      5-min Rain = 0
KAM2 200128Z 16004KT M00/M05 A3024 RMK A01 T10041050  RH  071%=      5-min Rain = 0
KAM2 200129Z 15003KT M00/M05 A3024 RMK A01 T10041049  RH  071%=      5-min Rain = 0
KAM2 200130Z 15003KT M00/M05 A3024 RMK A01 T10021048  RH  071%=      5-min Rain = 0
KAM2 200131Z 14003KT M00/M05 A3024 RMK A01 T10011048  RH  071%=      5-min Rain = 0
KAM2 200132Z 14004KT 00/05 A3024 RMK A01 T00-00-48  RH  070%=      5-min Rain = 0
KAM2 200133Z 14003KT 00/05 A3024 RMK A01 T00000-48  RH  070%=      5-min Rain = 0
KAM2 200134Z 15003KT 00/M05 A3024 RMK A01 T00011048  RH  070%=      5-min Rain = 0
KAM2 200135Z 15002KT 00/05 A3024 RMK A01 T00000-49  RH  070%=      5-min Rain = 0
KAM2 200136Z 17002KT M00/M05 A3024 RMK A01 T10021049  RH  070%=      5-min Rain = 0
KAM2 200137Z 16002KT M00/M05 A3024 RMK A01 T10031049  RH  071%=      5-min Rain = 0
KAM2 200138Z 15001KT M00/M05 A3024 RMK A01 T10041050  RH  071%=      5-min Rain = 0
KAM2 200139Z 13001KT M00/M05 A3024 RMK A01 T10041049  RH  072%=      5-min Rain = 0
KAM2 200140Z 12001KT M00/M05 A3024 RMK A01 T10041048  RH  072%=      5-min Rain = 0
KAM2 200141Z 13001KT M00/M05 A3024 RMK A01 T10041048  RH  072%=      5-min Rain = 0
KAM2 200142Z 16001KT M00/M05 A3024 RMK A01 T10041048  RH  072%=      5-min Rain = 0
KAM2 200143Z 17001KT M00/M05 A3024 RMK A01 T10031047  RH  072%=      5-min Rain = 0
KAM2 200144Z 18001KT M00/M05 A3024 RMK A01 T10031047  RH  072%=      5-min Rain = 0
KAM2 200145Z 18002KT M00/M05 A3024 RMK A01 T10031047  RH  073%=      5-min Rain = 0
KAM2 200146Z 17003KT M00/M05 A3024 RMK A01 T10041047  RH  073%=      5-min Rain = 0
KAM2 200147Z 16003KT M01/M05 A3024 RMK A01 T10051048  RH  073%=      5-min Rain = 0
KAM2 200148Z 15003KT M01/M05 A3024 RMK A01 T10061049  RH  073%=      5-min Rain = 0
KAM2 200149Z 15003KT M01/M05 A3025 RMK A01 T10061049  RH  073%=      5-min Rain = 0
KAM2 200150Z 15002KT M01/M05 A3025 RMK A01 T10061048  RH  073%=      5-min Rain = 0
KAM2 200151Z 15002KT M01/M05 A3025 RMK A01 T10051047  RH  073%=      5-min Rain = 0
KAM2 200152Z 16002KT M00/M05 A3025 RMK A01 T10041047  RH  073%=      5-min Rain = 0
KAM2 200153Z 16002KT M00/M05 A3025 RMK A01 T10041047  RH  073%=      5-min Rain = 0
KAM2 200154Z 17002KT M00/M05 A3026 RMK A01 T10031047  RH  073%=      5-min Rain = 0
KAM2 200155Z 17003KT M00/M05 A3026 RMK A01 T10031046  RH  073%=      5-min Rain = 0
KAM2 200156Z 16003KT M00/M05 A3026 RMK A01 T10031046  RH  073%=      5-min Rain = 0
KAM2 200157Z 16003KT M00/M05 A3026 RMK A01 T10041047  RH  073%=      5-min Rain = 0
KAM2 200158Z 18003KT M00/M05 A3026 RMK A01 T10041047  RH  073%=      5-min Rain = 0
KAM2 200159Z 19002KT M01/M05 A3026 RMK A01 T10051047  RH  073%=      5-min Rain = 0
KAM2 200200Z 17002KT M01/M05 A3026 RMK A01 T10051047  RH  073%=      5-min Rain = 0
KAM2 200201Z 14001KT M01/M05 A3026 RMK A01 T10051047  RH  073%=      5-min Rain = 0
KAM2 200202Z 15000KT M01/M05 A3026 RMK A01 T10061048  RH  073%=      5-min Rain = 0
KAM2 200203Z 18001KT M01/M05 A3026 RMK A01 T10071048  RH  074%=      5-min Rain = 0
KAM2 200204Z 19002KT M01/M05 A3026 RMK A01 T10061047  RH  074%=      5-min Rain = 0
KAM2 200205Z 18002KT M01/M05 A3026 RMK A01 T10061047  RH  073%=      5-min Rain = 0
KAM2 200206Z 17002KT M01/M05 A3026 RMK A01 T10061048  RH  073%=      5-min Rain = 0
KAM2 200207Z 17002KT M01/M05 A3026 RMK A01 T10061047  RH  073%=      5-min Rain = 0
KAM2 200208Z 18002KT M01/M05 A3026 RMK A01 T10061048  RH  073%=      5-min Rain = 0
KAM2 200209Z 18003KT M01/M05 A3026 RMK A01 T10071049  RH  073%=      5-min Rain = 0
KAM2 200210Z 18003KT M01/M05 A3026 RMK A01 T10081049  RH  073%=      5-min Rain = 0
KAM2 200211Z 17003KT M01/M05 A3026 RMK A01 T10091050  RH  074%=      5-min Rain = 0
KAM2 200212Z 16004KT M01/M05 A3026 RMK A01 T10101050  RH  074%=      5-min Rain = 0
KAM2 200213Z 17004KT M01/M05 A3026 RMK A01 T10111050  RH  075%=      5-min Rain = 0
KAM2 200214Z 17003KT M01/M05 A3026 RMK A01 T10111050  RH  075%=      5-min Rain = 0
KAM2 200215Z 16003KT M01/M05 A3026 RMK A01 T10121050  RH  075%=      5-min Rain = 0
KAM2 200216Z 15003KT M01/M05 A3025 RMK A01 T10121051  RH  075%=      5-min Rain = 0
KAM2 200217Z 15003KT M01/M05 A3025 RMK A01 T10131052  RH  075%=      5-min Rain = 0
KAM2 200218Z 17003KT M02/M05 A3025 RMK A01 T10151053  RH  075%=      5-min Rain = 0
KAM2 200219Z 17004KT M02/M05 A3025 RMK A01 T10161053  RH  076%=      5-min Rain = 0
KAM2 200220Z 17004KT M02/M05 A3026 RMK A01 T10171054  RH  076%=      5-min Rain = 0
KAM2 200221Z 17004KT M02/M05 A3026 RMK A01 T10191054  RH  077%=      5-min Rain = 0
KAM2 200222Z 17003KT M02/M05 A3025 RMK A01 T10191053  RH  078%=      5-min Rain = 0
KAM2 200223Z 19003KT M02/M05 A3025 RMK A01 T10191052  RH  078%=      5-min Rain = 0
KAM2 200224Z 20003KT M02/M05 A3025 RMK A01 T10191053  RH  077%=      5-min Rain = 0
KAM2 200225Z 20004KT M02/M05 A3025 RMK A01 T10181053  RH  077%=      5-min Rain = 0
KAM2 200226Z 20005KT M02/M05 A3026 RMK A01 T10171053  RH  077%=      5-min Rain = 0
KAM2 200227Z 19005KT M02/M05 A3026 RMK A01 T10181053  RH  077%=      5-min Rain = 0
KAM2 200228Z 19005KT M02/M05 A3026 RMK A01 T10191051  RH  078%=      5-min Rain = 0
KAM2 200229Z 19004KT M02/M05 A3026 RMK A01 T10181050  RH  079%=      5-min Rain = 0
KAM2 200230Z 19004KT M02/M05 A3026 RMK A01 T10171048  RH  079%=      5-min Rain = 0
KAM2 200231Z 19004KT M02/M05 A3026 RMK A01 T10161048  RH  079%=      5-min Rain = 0
KAM2 200232Z 19004KT M02/M05 A3026 RMK A01 T10161048  RH  079%=      5-min Rain = 0
KAM2 200233Z 19005KT M02/M05 A3026 RMK A01 T10161048  RH  078%=      5-min Rain = 0
KAM2 200234Z 18005KT M02/M05 A3026 RMK A01 T10161049  RH  078%=      5-min Rain = 0
KAM2 200235Z 18005KT M02/M05 A3026 RMK A01 T10171050  RH  078%=      5-min Rain = 0
KAM2 200236Z 18005KT M02/M05 A3026 RMK A01 T10191051  RH  079%=      5-min Rain = 0
KAM2 200237Z 17005KT M02/M05 A3026 RMK A01 T10191051  RH  079%=      5-min Rain = 0
KAM2 200238Z 17004KT M02/M05 A3026 RMK A01 T10201052  RH  079%=      5-min Rain = 0
KAM2 200239Z 17004KT M02/M05 A3026 RMK A01 T10211054  RH  079%=      5-min Rain = 0
KAM2 200240Z 18005KT M02/M06 A3025 RMK A01 T10231055  RH  079%=      5-min Rain = 0
KAM2 200241Z 18005KT M02/M05 A3025 RMK A01 T10231053  RH  080%=      5-min Rain = 0
KAM2 200242Z 19005KT M02/M05 A3025 RMK A01 T10231053  RH  080%=      5-min Rain = 0
KAM2 200243Z 19005KT M02/M05 A3026 RMK A01 T10221052  RH  080%=      5-min Rain = 0
KAM2 200244Z 19004KT M02/M05 A3026 RMK A01 T10221052  RH  080%=      5-min Rain = 0
KAM2 200245Z 19004KT M02/M05 A3026 RMK A01 T10221052  RH  080%=      5-min Rain = 0
KAM2 200246Z 19003KT M02/M05 A3026 RMK A01 T10221051  RH  081%=      5-min Rain = 0
KAM2 200247Z 19003KT M02/M05 A3026 RMK A01 T10221049  RH  081%=      5-min Rain = 0
KAM2 200248Z 19003KT M02/M05 A3026 RMK A01 T10201047  RH  081%=      5-min Rain = 0
KAM2 200249Z 18003KT M02/M05 A3026 RMK A01 T10181047  RH  081%=      5-min Rain = 0
KAM2 200250Z 17004KT M02/M05 A3025 RMK A01 T10171047  RH  080%=      5-min Rain = 0
KAM2 200251Z 17004KT M02/M05 A3025 RMK A01 T10171049  RH  079%=      5-min Rain = 0
KAM2 200252Z 16005KT M02/M05 A3025 RMK A01 T10201052  RH  079%=      5-min Rain = 0
KAM2 200253Z 17004KT M02/M05 A3025 RMK A01 T10221054  RH  079%=      5-min Rain = 0
KAM2 200254Z 16003KT M02/M05 A3025 RMK A01 T10241054  RH  080%=      5-min Rain = 0
KAM2 200255Z 16003KT M02/M05 A3025 RMK A01 T10241053  RH  080%=      5-min Rain = 0
KAM2 200256Z 16003KT M02/M05 A3025 RMK A01 T10231052  RH  081%=      5-min Rain = 0
KAM2 200257Z 14003KT M02/M05 A3025 RMK A01 T10221052  RH  080%=      5-min Rain = 0
KAM2 200258Z 14003KT M02/M05 A3024 RMK A01 T10221051  RH  080%=      5-min Rain = 0
KAM2 200259Z 15003KT M02/M05 A3024 RMK A01 T10211050  RH  081%=      5-min Rain = 0
KAM2 200300Z 17003KT M02/M05 A3024 RMK A01 T10191047  RH  081%=      5-min Rain = 0
KAM2 200301Z 19004KT M02/M05 A3024 RMK A01 T10181047  RH  080%=      5-min Rain = 0
KAM2 200302Z 19005KT M02/M05 A3024 RMK A01 T10191049  RH  080%=      5-min Rain = 0
KAM2 200303Z 19005KT M02/M05 A3024 RMK A01 T10201049  RH  080%=      5-min Rain = 0
KAM2 200304Z 19004KT M02/M05 A3025 RMK A01 T10181047  RH  081%=      5-min Rain = 0
KAM2 200305Z 18003KT M02/M05 A3025 RMK A01 T10161045  RH  081%=      5-min Rain = 0
KAM2 200306Z 17002KT M01/M04 A3025 RMK A01 T10141043  RH  081%=      5-min Rain = 0
KAM2 200307Z 17002KT M01/M04 A3025 RMK A01 T10121042  RH  080%=      5-min Rain = 0
KAM2 200308Z 17003KT M01/M04 A3025 RMK A01 T10101042  RH  079%=      5-min Rain = 0
KAM2 200309Z 18004KT M01/M04 A3025 RMK A01 T10091043  RH  078%=      5-min Rain = 0
KAM2 200310Z 18004KT M01/M04 A3024 RMK A01 T10101043  RH  078%=      5-min Rain = 0
KAM2 200311Z 18004KT M01/M05 A3024 RMK A01 T10101045  RH  077%=      5-min Rain = 0
KAM2 200312Z 18004KT M01/M05 A3024 RMK A01 T10111046  RH  077%=      5-min Rain = 0
KAM2 200313Z 18004KT M01/M05 A3024 RMK A01 T10121046  RH  078%=      5-min Rain = 0
KAM2 200314Z 18005KT M01/M05 A3025 RMK A01 T10131046  RH  078%=      5-min Rain = 0
KAM2 200315Z 18004KT M01/M05 A3025 RMK A01 T10131046  RH  079%=      5-min Rain = 0
KAM2 200316Z 17004KT M01/M05 A3025 RMK A01 T10131045  RH  079%=      5-min Rain = 0
KAM2 200317Z 17004KT M01/M05 A3025 RMK A01 T10141046  RH  079%=      5-min Rain = 0
KAM2 200318Z 18004KT M01/M05 A3025 RMK A01 T10141047  RH  079%=      5-min Rain = 0
KAM2 200319Z 19003KT M02/M05 A3025 RMK A01 T10151047  RH  079%=      5-min Rain = 0
KAM2 200320Z 19003KT M02/M05 A3025 RMK A01 T10161046  RH  080%=      5-min Rain = 0
KAM2 200321Z 19004KT M02/M05 A3025 RMK A01 T10171045  RH  081%=      5-min Rain = 0
KAM2 200322Z 19004KT M02/M05 A3025 RMK A01 T10171045  RH  081%=      5-min Rain = 0
KAM2 200323Z 19005KT M02/M05 A3025 RMK A01 T10171045  RH  081%=      5-min Rain = 0
KAM2 200324Z 19005KT M02/M05 A3025 RMK A01 T10181046  RH  082%=      5-min Rain = 0
KAM2 200325Z 19007KT M02/M05 A3025 RMK A01 T10201046  RH  082%=      5-min Rain = 0
KAM2 200326Z 18006KT M02/M05 A3025 RMK A01 T10201047  RH  082%=      5-min Rain = 0
KAM2 200327Z 18006KT M02/M05 A3024 RMK A01 T10201046  RH  083%=      5-min Rain = 0
KAM2 200328Z 18007KT M02/M04 A3024 RMK A01 T10181044  RH  083%=      5-min Rain = 0
KAM2 200329Z 18006KT M02/M04 A3024 RMK A01 T10171044  RH  082%=      5-min Rain = 0
KAM2 200330Z 18006KT M02/M04 A3024 RMK A01 T10161044  RH  081%=      5-min Rain = 0
KAM2 200331Z 18005KT M02/M04 A3024 RMK A01 T10151043  RH  081%=      5-min Rain = 0
KAM2 200332Z 18005KT M01/M04 A3023 RMK A01 T10141043  RH  081%=      5-min Rain = 0
KAM2 200333Z 18005KT M02/M05 A3023 RMK A01 T10151045  RH  080%=      5-min Rain = 0
KAM2 200334Z 18005KT M02/M05 A3023 RMK A01 T10161046  RH  080%=      5-min Rain = 0
KAM2 200335Z 18005KT M02/M05 A3023 RMK A01 T10181047  RH  080%=      5-min Rain = 0
KAM2 200336Z 17005KT M02/M05 A3023 RMK A01 T10181047  RH  081%=      5-min Rain = 0
KAM2 200337Z 18006KT M02/M05 A3022 RMK A01 T10181047  RH  081%=      5-min Rain = 0
KAM2 200338Z 18006KT M02/M05 A3023 RMK A01 T10191047  RH  081%=      5-min Rain = 0
KAM2 200339Z 19007KT M02/M05 A3023 RMK A01 T10191047  RH  081%=      5-min Rain = 0
KAM2 200340Z 19008KT M02/M05 A3023 RMK A01 T10191047  RH  081%=      5-min Rain = 0
KAM2 200341Z 19008KT M02/M05 A3023 RMK A01 T10201047  RH  082%=      5-min Rain = 0
KAM2 200342Z 19007KT M02/M05 A3023 RMK A01 T10201046  RH  083%=      5-min Rain = 0
KAM2 200343Z 19006KT M02/M05 A3023 RMK A01 T10201045  RH  083%=      5-min Rain = 0
KAM2 200344Z 19005KT M02/M04 A3024 RMK A01 T10191044  RH  083%=      5-min Rain = 0
KAM2 200345Z 20005KT M02/M04 A3024 RMK A01 T10181044  RH  083%=      5-min Rain = 0
KAM2 200346Z 20005KT M02/M04 A3024 RMK A01 T10181044  RH  082%=      5-min Rain = 0
KAM2 200347Z 19006KT M02/M04 A3023 RMK A01 T10181044  RH  083%=      5-min Rain = 0
KAM2 200348Z 19005KT M02/M04 A3023 RMK A01 T10181043  RH  083%=      5-min Rain = 0
KAM2 200349Z 18004KT M02/M04 A3023 RMK A01 T10181044  RH  083%=      5-min Rain = 0
KAM2 200350Z 18003KT M02/M05 A3023 RMK A01 T10201047  RH  082%=      5-min Rain = 0
KAM2 200351Z 19003KT M02/M05 A3023 RMK A01 T10221049  RH  082%=      5-min Rain = 0
KAM2 200352Z 19003KT M02/M05 A3023 RMK A01 T10231047  RH  083%=      5-min Rain = 0
KAM2 200353Z 19003KT M02/M05 A3023 RMK A01 T10221045  RH  084%=      5-min Rain = 0
KAM2 200354Z 19004KT M02/M04 A3023 RMK A01 T10201044  RH  084%=      5-min Rain = 0
KAM2 200355Z 19005KT M02/M04 A3023 RMK A01 T10191044  RH  083%=      5-min Rain = 0
KAM2 200356Z 19004KT M02/M04 A3023 RMK A01 T10191044  RH  083%=      5-min Rain = 0
KAM2 200357Z 19005KT M02/M04 A3022 RMK A01 T10191044  RH  083%=      5-min Rain = 0
KAM2 200358Z 19006KT M02/M04 A3022 RMK A01 T10191044  RH  083%=      5-min Rain = 0
KAM2 200359Z 19006KT M02/M05 A3022 RMK A01 T10191045  RH  082%=      5-min Rain = 0
KAM2 200400Z 19007KT M02/M05 A3023 RMK A01 T10191045  RH  082%=      5-min Rain = 0
KAM2 200401Z 20008KT M02/M05 A3023 RMK A01 T10191045  RH  083%=      5-min Rain = 0
KAM2 200402Z 19008KT M02/M04 A3023 RMK A01 T10191044  RH  083%=      5-min Rain = 0
KAM2 200403Z 19008KT M02/M04 A3023 RMK A01 T10181043  RH  083%=      5-min Rain = 0
KAM2 200404Z 18006KT M02/M04 A3023 RMK A01 T10171042  RH  083%=      5-min Rain = 0
KAM2 200405Z 18005KT M02/M04 A3023 RMK A01 T10161042  RH  082%=      5-min Rain = 0
KAM2 200406Z 18005KT M02/M04 A3023 RMK A01 T10151043  RH  082%=      5-min Rain = 0
KAM2 200407Z 18005KT M02/M04 A3023 RMK A01 T10151043  RH  081%=      5-min Rain = 0
KAM2 200408Z 18005KT M02/M04 A3023 RMK A01 T10151044  RH  081%=      5-min Rain = 0
KAM2 200409Z 18005KT M02/M04 A3023 RMK A01 T10151044  RH  081%=      5-min Rain = 0
KAM2 200410Z 18005KT M02/M05 A3023 RMK A01 T10161045  RH  080%=      5-min Rain = 0
KAM2 200411Z 18005KT M02/M05 A3023 RMK A01 T10171046  RH  081%=      5-min Rain = 0
KAM2 200412Z 18005KT M02/M05 A3024 RMK A01 T10181046  RH  081%=      5-min Rain = 0
KAM2 200413Z 18005KT M02/M05 A3024 RMK A01 T10191047  RH  081%=      5-min Rain = 0
KAM2 200414Z 18004KT M02/M05 A3024 RMK A01 T10201047  RH  082%=      5-min Rain = 0
KAM2 200415Z 18005KT M02/M05 A3024 RMK A01 T10211048  RH  082%=      5-min Rain = 0
KAM2 200416Z 17005KT M02/M05 A3024 RMK A01 T10221049  RH  082%=      5-min Rain = 0
KAM2 200417Z 17004KT M02/M05 A3024 RMK A01 T10231049  RH  082%=      5-min Rain = 0
KAM2 200418Z 17004KT M02/M05 A3024 RMK A01 T10231048  RH  083%=      5-min Rain = 0
KAM2 200419Z 17004KT M02/M05 A3024 RMK A01 T10231047  RH  084%=      5-min Rain = 0
KAM2 200420Z 17004KT M02/M05 A3024 RMK A01 T10221046  RH  084%=      5-min Rain = 0
KAM2 200421Z 17004KT M02/M05 A3024 RMK A01 T10211046  RH  083%=      5-min Rain = 0
KAM2 200422Z 17004KT M02/M05 A3024 RMK A01 T10211046  RH  083%=      5-min Rain = 0
KAM2 200423Z 18005KT M02/M05 A3024 RMK A01 T10221047  RH  083%=      5-min Rain = 0
KAM2 200424Z 18005KT M02/M05 A3024 RMK A01 T10221048  RH  083%=      5-min Rain = 0
KAM2 200425Z 18006KT M02/M05 A3024 RMK A01 T10221047  RH  083%=      5-min Rain = 0
KAM2 200426Z 17005KT M02/M05 A3024 RMK A01 T10221047  RH  083%=      5-min Rain = 0
KAM2 200427Z 17004KT M02/M05 A3024 RMK A01 T10221047  RH  083%=      5-min Rain = 0
KAM2 200428Z 18004KT M02/M05 A3024 RMK A01 T10241049  RH  083%=      5-min Rain = 0
KAM2 200429Z 18004KT M03/M05 A3024 RMK A01 T10251050  RH  083%=      5-min Rain = 0
KAM2 200430Z 18003KT M03/M05 A3024 RMK A01 T10261051  RH  083%=      5-min Rain = 0
KAM2 200431Z 18004KT M03/M05 A3024 RMK A01 T10261050  RH  084%=      5-min Rain = 0
KAM2 200432Z 18004KT M03/M05 A3024 RMK A01 T10261050  RH  084%=      5-min Rain = 0
KAM2 200433Z 18005KT M03/M05 A3024 RMK A01 T10271051  RH  083%=      5-min Rain = 0
KAM2 200434Z 18006KT M03/M05 A3024 RMK A01 T10271051  RH  084%=      5-min Rain = 0
KAM2 200435Z 18005KT M03/M05 A3024 RMK A01 T10271050  RH  084%=      5-min Rain = 0
KAM2 200436Z 17005KT M03/M05 A3024 RMK A01 T10261049  RH  084%=      5-min Rain = 0
KAM2 200437Z 17006KT M03/M05 A3024 RMK A01 T10261049  RH  084%=      5-min Rain = 0
KAM2 200438Z 17006KT M03/M05 A3024 RMK A01 T10261049  RH  084%=      5-min Rain = 0
KAM2 200439Z 17006KT M03/M05 A3024 RMK A01 T10261049  RH  084%=      5-min Rain = 0
KAM2 200440Z 17006KT M03/M05 A3024 RMK A01 T10261048  RH  085%=      5-min Rain = 0
KAM2 200441Z 17006KT M03/M05 A3024 RMK A01 T10251048  RH  084%=      5-min Rain = 0
KAM2 200442Z 18006KT M03/M05 A3024 RMK A01 T10251048  RH  084%=      5-min Rain = 0
KAM2 200443Z 18007KT M03/M05 A3024 RMK A01 T10251050  RH  083%=      5-min Rain = 0
KAM2 200444Z 17007KT M03/M05 A3024 RMK A01 T10271050  RH  084%=      5-min Rain = 0
KAM2 200445Z 17006KT M03/M05 A3024 RMK A01 T10271049  RH  085%=      5-min Rain = 0
KAM2 200446Z 16005KT M03/M05 A3024 RMK A01 T10271049  RH  085%=      5-min Rain = 0
KAM2 200447Z 16004KT M03/M05 A3025 RMK A01 T10271049  RH  085%=      5-min Rain = 0
KAM2 200448Z 16004KT M03/M05 A3025 RMK A01 T10271049  RH  085%=      5-min Rain = 0
KAM2 200449Z 16004KT M03/M05 A3025 RMK A01 T10271049  RH  085%=      5-min Rain = 0
KAM2 200450Z 15004KT M03/M05 A3025 RMK A01 T10271049  RH  085%=      5-min Rain = 0
KAM2 200451Z 16004KT M03/M05 A3025 RMK A01 T10261048  RH  085%=      5-min Rain = 0
KAM2 200452Z 16004KT M03/M05 A3025 RMK A01 T10261048  RH  085%=      5-min Rain = 0
KAM2 200453Z 16005KT M03/M05 A3025 RMK A01 T10261048  RH  085%=      5-min Rain = 0
KAM2 200454Z 16005KT M03/M05 A3025 RMK A01 T10271049  RH  085%=      5-min Rain = 0
KAM2 200455Z 16005KT M03/M05 A3025 RMK A01 T10281049  RH  085%=      5-min Rain = 0
KAM2 200456Z 16006KT M03/M05 A3025 RMK A01 T10281049  RH  086%=      5-min Rain = 0
KAM2 200457Z 16007KT M03/M05 A3025 RMK A01 T10281048  RH  086%=      5-min Rain = 0
KAM2 200458Z 16007KT M03/M05 A3025 RMK A01 T10271048  RH  086%=      5-min Rain = 0
KAM2 200459Z 16007KT M03/M05 A3025 RMK A01 T10261046  RH  086%=      5-min Rain = 0
KAM2 200500Z 15007KT M02/M05 A3024 RMK A01 T10241045  RH  085%=      5-min Rain = 0
KAM2 200501Z 15007KT M02/M05 A3024 RMK A01 T10231045  RH  085%=      5-min Rain = 0
KAM2 200502Z 15007KT M02/M04 A3024 RMK A01 T10211044  RH  085%=      5-min Rain = 0
KAM2 200503Z 15006KT M02/M04 A3024 RMK A01 T10201044  RH  084%=      5-min Rain = 0
KAM2 200504Z 15006KT M02/M04 A3024 RMK A01 T10191044  RH  083%=      5-min Rain = 0
KAM2 200505Z 15006KT M02/M05 A3024 RMK A01 T10191045  RH  083%=      5-min Rain = 0
KAM2 200506Z 15006KT M02/M05 A3024 RMK A01 T10191045  RH  083%=      5-min Rain = 0
KAM2 200507Z 15005KT M02/M05 A3024 RMK A01 T10191045  RH  082%=      5-min Rain = 0
KAM2 200508Z 16006KT M02/M05 A3024 RMK A01 T10191045  RH  082%=      5-min Rain = 0
KAM2 200509Z 16005KT M02/M05 A3024 RMK A01 T10191046  RH  082%=      5-min Rain = 0
KAM2 200510Z 16004KT M02/M05 A3025 RMK A01 T10201046  RH  082%=      5-min Rain = 0
KAM2 200511Z 17004KT M02/M05 A3025 RMK A01 T10201047  RH  082%=      5-min Rain = 0
KAM2 200512Z 16004KT M02/M05 A3026 RMK A01 T10211049  RH  082%=      5-min Rain = 0
KAM2 200513Z 15005KT M02/M05 A3026 RMK A01 T10211048  RH  082%=      5-min Rain = 0
KAM2 200514Z 16006KT M02/M05 A3025 RMK A01 T10211048  RH  082%=      5-min Rain = 0
KAM2 200515Z 16007KT M02/M05 A3025 RMK A01 T10201048  RH  081%=      5-min Rain = 0
KAM2 200516Z 16007KT M02/M05 A3025 RMK A01 T10201048  RH  081%=      5-min Rain = 0
KAM2 200517Z 15007KT M02/M05 A3025 RMK A01 T10201048  RH  082%=      5-min Rain = 0
KAM2 200518Z 15008KT M02/M05 A3025 RMK A01 T10201047  RH  082%=      5-min Rain = 0
KAM2 200519Z 15008KT M02/M05 A3025 RMK A01 T10191046  RH  082%=      5-min Rain = 0
KAM2 200520Z 15008KT M02/M05 A3025 RMK A01 T10191046  RH  082%=      5-min Rain = 0
KAM2 200521Z 15007KT M02/M05 A3025 RMK A01 T10181046  RH  082%=      5-min Rain = 0
KAM2 200522Z 15006KT M02/M05 A3025 RMK A01 T10181046  RH  081%=      5-min Rain = 0
KAM2 200523Z 15006KT M02/M05 A3025 RMK A01 T10181046  RH  081%=      5-min Rain = 0
KAM2 200524Z 15006KT M02/M05 A3025 RMK A01 T10181046  RH  081%=      5-min Rain = 0
KAM2 200525Z 15006KT M02/M05 A3025 RMK A01 T10181046  RH  081%=      5-min Rain = 0
KAM2 200526Z 15006KT M02/M05 A3026 RMK A01 T10171046  RH  081%=      5-min Rain = 0
KAM2 200527Z 16006KT M02/M05 A3026 RMK A01 T10171046  RH  081%=      5-min Rain = 0
KAM2 200528Z 16006KT M02/M05 A3026 RMK A01 T10161046  RH  080%=      5-min Rain = 0
KAM2 200529Z 16006KT M02/M05 A3026 RMK A01 T10161046  RH  080%=      5-min Rain = 0
KAM2 200530Z 16007KT M02/M05 A3027 RMK A01 T10161047  RH  079%=      5-min Rain = 0
KAM2 200531Z 16007KT M02/M05 A3027 RMK A01 T10161047  RH  080%=      5-min Rain = 0
KAM2 200532Z 16007KT M02/M05 A3027 RMK A01 T10161047  RH  080%=      5-min Rain = 0
KAM2 200533Z 16007KT M02/M05 A3026 RMK A01 T10171047  RH  080%=      5-min Rain = 0
KAM2 200534Z 16007KT M02/M05 A3026 RMK A01 T10181048  RH  080%=      5-min Rain = 0
KAM2 200535Z 16007KT M02/M05 A3026 RMK A01 T10181048  RH  081%=      5-min Rain = 0
KAM2 200536Z 16008KT M02/M05 A3025 RMK A01 T10191047  RH  081%=      5-min Rain = 0
KAM2 200537Z 16008KT M02/M05 A3025 RMK A01 T10181046  RH  081%=      5-min Rain = 0
KAM2 200538Z 16007KT M02/M05 A3025 RMK A01 T10181046  RH  081%=      5-min Rain = 0
KAM2 200539Z 16006KT M02/M05 A3025 RMK A01 T10181046  RH  081%=      5-min Rain = 0
KAM2 200540Z 15006KT M02/M05 A3025 RMK A01 T10181046  RH  081%=      5-min Rain = 0
KAM2 200541Z 16005KT M02/M05 A3025 RMK A01 T10191047  RH  081%=      5-min Rain = 0
KAM2 200542Z 16004KT M02/M05 A3025 RMK A01 T10201048  RH  081%=      5-min Rain = 0
KAM2 200543Z 16004KT M02/M05 A3025 RMK A01 T10211048  RH  082%=      5-min Rain = 0
KAM2 200544Z 16004KT M02/M05 A3025 RMK A01 T10221048  RH  082%=      5-min Rain = 0
KAM2 200545Z 17004KT M02/M05 A3025 RMK A01 T10221049  RH  082%=      5-min Rain = 0
KAM2 200546Z 17004KT M02/M05 A3025 RMK A01 T10231050  RH  082%=      5-min Rain = 0
KAM2 200547Z 17005KT M02/M05 A3025 RMK A01 T10241050  RH  082%=      5-min Rain = 0
KAM2 200548Z 17006KT M02/M05 A3025 RMK A01 T10241051  RH  082%=      5-min Rain = 0
KAM2 200549Z 17007KT M03/M05 A3025 RMK A01 T10251051  RH  082%=      5-min Rain = 0
KAM2 200550Z 17007KT M03/M05 A3025 RMK A01 T10251051  RH  083%=      5-min Rain = 0
KAM2 200551Z 17007KT M03/M05 A3025 RMK A01 T10251051  RH  083%=      5-min Rain = 0
KAM2 200552Z 17007KT M03/M05 A3025 RMK A01 T10251050  RH  083%=      5-min Rain = 0
KAM2 200553Z 17007KT M03/M05 A3025 RMK A01 T10251050  RH  083%=      5-min Rain = 0
KAM2 200554Z 18007KT M02/M05 A3024 RMK A01 T10241050  RH  083%=      5-min Rain = 0
KAM2 200555Z 18007KT M03/M05 A3025 RMK A01 T10251050  RH  083%=      5-min Rain = 0
KAM2 200556Z 18007KT M02/M05 A3025 RMK A01 T10241050  RH  083%=      5-min Rain = 0
KAM2 200557Z 18007KT M02/M05 A3025 RMK A01 T10241050  RH  083%=      5-min Rain = 0
KAM2 200558Z 18007KT M02/M05 A3025 RMK A01 T10241050  RH  083%=      5-min Rain = 0
KAM2 200559Z 18007KT M02/M05 A3025 RMK A01 T10241050  RH  083%=      5-min Rain = 0

Page generated in 0.1315 seconds.